<?xml version="1.0" encoding="UTF-8" standalone="no" ?>
<gpx xmlns="http://www.topografix.com/GPX/1/1" xmlns:xsi="http://www.w3.org/2001/XMLSchema-instance" xsi:schemaLocation="http://www.topografix.com/GPX/1/1 http://www.topografix.com/GPX/1/1/gpx.xsd" version="1.1" creator="VisuGPX - https://www.visugpx.com">
  <metadata>
    <name>Franqueville-ras-42k500</name>
  </metadata>
  <trk>
    <name><![CDATA[Franqueville-ras-42k500_1]]></name>
    <trkseg>
      <trkpt lat="49.39041" lon="1.14464">
        <ele>146.5</ele>
        <time>2017-05-14T07:31:07Z</time>
      </trkpt>
      <trkpt lat="49.39024" lon="1.1449">
        <ele>146</ele>
        <time>2017-05-14T07:31:19Z</time>
      </trkpt>
      <trkpt lat="49.39003" lon="1.14502">
        <ele>146</ele>
        <time>2017-05-14T07:31:31Z</time>
      </trkpt>
      <trkpt lat="49.38986" lon="1.14534">
        <ele>145.8</ele>
        <time>2017-05-14T07:31:43Z</time>
      </trkpt>
      <trkpt lat="49.38981" lon="1.14557">
        <ele>145.8</ele>
        <time>2017-05-14T07:31:55Z</time>
      </trkpt>
      <trkpt lat="49.38982" lon="1.14578">
        <ele>145.8</ele>
        <time>2017-05-14T07:32:07Z</time>
      </trkpt>
      <trkpt lat="49.38978" lon="1.14643">
        <ele>145</ele>
        <time>2017-05-14T07:32:19Z</time>
      </trkpt>
      <trkpt lat="49.38975" lon="1.14693">
        <ele>144.691132</ele>
        <time>2017-05-14T07:32:31Z</time>
      </trkpt>
      <trkpt lat="49.38981" lon="1.14783">
        <ele>144.854126</ele>
        <time>2017-05-14T07:32:43Z</time>
      </trkpt>
      <trkpt lat="49.38992" lon="1.14875">
        <ele>144.72403</ele>
        <time>2017-05-14T07:32:55Z</time>
      </trkpt>
      <trkpt lat="49.39002" lon="1.14969">
        <ele>144.698975</ele>
        <time>2017-05-14T07:33:07Z</time>
      </trkpt>
      <trkpt lat="49.39017" lon="1.15064">
        <ele>143.936737</ele>
        <time>2017-05-14T07:33:19Z</time>
      </trkpt>
      <trkpt lat="49.39035" lon="1.15154">
        <ele>142.715027</ele>
        <time>2017-05-14T07:33:31Z</time>
      </trkpt>
      <trkpt lat="49.39052" lon="1.15252">
        <ele>141.612</ele>
        <time>2017-05-14T07:33:43Z</time>
      </trkpt>
      <trkpt lat="49.39059" lon="1.15322">
        <ele>141.747208</ele>
        <time>2017-05-14T07:33:55Z</time>
      </trkpt>
      <trkpt lat="49.3907" lon="1.15384">
        <ele>143.578415</ele>
        <time>2017-05-14T07:34:07Z</time>
      </trkpt>
      <trkpt lat="49.39084" lon="1.15457">
        <ele>145.003098</ele>
        <time>2017-05-14T07:34:19Z</time>
      </trkpt>
      <trkpt lat="49.39101" lon="1.15536">
        <ele>145.439667</ele>
        <time>2017-05-14T07:35:18Z</time>
      </trkpt>
      <trkpt lat="49.3912" lon="1.15611">
        <ele>145.337799</ele>
        <time>2017-05-14T07:35:30Z</time>
      </trkpt>
      <trkpt lat="49.39137" lon="1.15685">
        <ele>144.955856</ele>
        <time>2017-05-14T07:35:42Z</time>
      </trkpt>
      <trkpt lat="49.39153" lon="1.15755">
        <ele>144.157318</ele>
        <time>2017-05-14T07:35:54Z</time>
      </trkpt>
      <trkpt lat="49.39135" lon="1.15779">
        <ele>143.437164</ele>
        <time>2017-05-14T07:36:06Z</time>
      </trkpt>
      <trkpt lat="49.39099" lon="1.15806">
        <ele>142.986206</ele>
        <time>2017-05-14T07:36:18Z</time>
      </trkpt>
      <trkpt lat="49.39064" lon="1.15834">
        <ele>142.686447</ele>
        <time>2017-05-14T07:36:54Z</time>
      </trkpt>
      <trkpt lat="49.39044" lon="1.15847">
        <ele>141.971924</ele>
        <time>2017-05-14T07:38:19Z</time>
      </trkpt>
      <trkpt lat="49.39014" lon="1.15872">
        <ele>141.383911</ele>
        <time>2017-05-14T07:38:43Z</time>
      </trkpt>
      <trkpt lat="49.38989" lon="1.15892">
        <ele>140.48436</ele>
        <time>2017-05-14T07:38:55Z</time>
      </trkpt>
      <trkpt lat="49.38966" lon="1.15886">
        <ele>138.034729</ele>
        <time>2017-05-14T07:39:07Z</time>
      </trkpt>
      <trkpt lat="49.38945" lon="1.15896">
        <ele>129</ele>
        <time>2017-05-14T07:39:19Z</time>
      </trkpt>
      <trkpt lat="49.38932" lon="1.15917">
        <ele>131.638718</ele>
        <time>2017-05-14T07:39:31Z</time>
      </trkpt>
      <trkpt lat="49.38908" lon="1.16021">
        <ele>121.774597</ele>
        <time>2017-05-14T07:39:43Z</time>
      </trkpt>
      <trkpt lat="49.38921" lon="1.16069">
        <ele>122</ele>
        <time>2017-05-14T07:40:00Z</time>
      </trkpt>
      <trkpt lat="49.38944" lon="1.1611">
        <ele>120</ele>
        <time>2017-05-14T07:40:12Z</time>
      </trkpt>
      <trkpt lat="49.3897" lon="1.16174">
        <ele>117</ele>
        <time>2017-05-14T07:40:24Z</time>
      </trkpt>
      <trkpt lat="49.38995" lon="1.16237">
        <ele>104.060394</ele>
        <time>2017-05-14T07:40:36Z</time>
      </trkpt>
      <trkpt lat="49.39024" lon="1.16301">
        <ele>118.8</ele>
        <time>2017-05-14T07:40:50Z</time>
      </trkpt>
      <trkpt lat="49.39019" lon="1.16319">
        <ele>117.8</ele>
        <time>2017-05-14T07:41:02Z</time>
      </trkpt>
      <trkpt lat="49.39006" lon="1.16312">
        <ele>91.884377</ele>
        <time>2017-05-14T07:41:20Z</time>
      </trkpt>
      <trkpt lat="49.38973" lon="1.16263">
        <ele>116.4</ele>
        <time>2017-05-14T07:41:34Z</time>
      </trkpt>
      <trkpt lat="49.38939" lon="1.16208">
        <ele>89.87104</ele>
        <time>2017-05-14T07:41:52Z</time>
      </trkpt>
      <trkpt lat="49.38907" lon="1.1616">
        <ele>88.080147</ele>
        <time>2017-05-14T07:42:06Z</time>
      </trkpt>
      <trkpt lat="49.38887" lon="1.16137">
        <ele>86.481598</ele>
        <time>2017-05-14T07:42:20Z</time>
      </trkpt>
      <trkpt lat="49.38858" lon="1.16092">
        <ele>85.059471</ele>
        <time>2017-05-14T07:42:32Z</time>
      </trkpt>
      <trkpt lat="49.38845" lon="1.16048">
        <ele>82.785431</ele>
        <time>2017-05-14T07:42:44Z</time>
      </trkpt>
      <trkpt lat="49.38828" lon="1.16034">
        <ele>81.87886</ele>
        <time>2017-05-14T07:42:58Z</time>
      </trkpt>
      <trkpt lat="49.38818" lon="1.16024">
        <ele>84.241806</ele>
        <time>2017-05-14T07:43:10Z</time>
      </trkpt>
      <trkpt lat="49.3881" lon="1.16014">
        <ele>86.575981</ele>
        <time>2017-05-14T07:43:22Z</time>
      </trkpt>
      <trkpt lat="49.38797" lon="1.16005">
        <ele>88.988251</ele>
        <time>2017-05-14T07:43:38Z</time>
      </trkpt>
      <trkpt lat="49.38787" lon="1.15992">
        <ele>91.07708</ele>
        <time>2017-05-14T07:43:54Z</time>
      </trkpt>
      <trkpt lat="49.38778" lon="1.15978">
        <ele>93.727135</ele>
        <time>2017-05-14T07:44:06Z</time>
      </trkpt>
      <trkpt lat="49.3877" lon="1.1597">
        <ele>96.416222</ele>
        <time>2017-05-14T07:44:18Z</time>
      </trkpt>
      <trkpt lat="49.3876" lon="1.15962">
        <ele>99.71035</ele>
        <time>2017-05-14T07:44:30Z</time>
      </trkpt>
      <trkpt lat="49.38748" lon="1.15954">
        <ele>102.242653</ele>
        <time>2017-05-14T07:44:42Z</time>
      </trkpt>
      <trkpt lat="49.38738" lon="1.15938">
        <ele>105.22525</ele>
        <time>2017-05-14T07:45:01Z</time>
      </trkpt>
      <trkpt lat="49.38728" lon="1.15924">
        <ele>107.7826</ele>
        <time>2017-05-14T07:45:13Z</time>
      </trkpt>
      <trkpt lat="49.38718" lon="1.15914">
        <ele>110.196053</ele>
        <time>2017-05-14T07:45:25Z</time>
      </trkpt>
      <trkpt lat="49.38712" lon="1.15904">
        <ele>111.745361</ele>
        <time>2017-05-14T07:45:37Z</time>
      </trkpt>
      <trkpt lat="49.38703" lon="1.15895">
        <ele>113.861076</ele>
        <time>2017-05-14T07:45:58Z</time>
      </trkpt>
      <trkpt lat="49.38695" lon="1.1588">
        <ele>116.324379</ele>
        <time>2017-05-14T07:46:10Z</time>
      </trkpt>
      <trkpt lat="49.3869" lon="1.15867">
        <ele>118.566238</ele>
        <time>2017-05-14T07:46:22Z</time>
      </trkpt>
      <trkpt lat="49.38683" lon="1.15858">
        <ele>120.964439</ele>
        <time>2017-05-14T07:46:34Z</time>
      </trkpt>
      <trkpt lat="49.38675" lon="1.15845">
        <ele>123.56855</ele>
        <time>2017-05-14T07:46:46Z</time>
      </trkpt>
      <trkpt lat="49.38665" lon="1.15844">
        <ele>126.736374</ele>
        <time>2017-05-14T07:46:58Z</time>
      </trkpt>
      <trkpt lat="49.38657" lon="1.15852">
        <ele>129.032257</ele>
        <time>2017-05-14T07:47:10Z</time>
      </trkpt>
      <trkpt lat="49.38648" lon="1.15856">
        <ele>131.182266</ele>
        <time>2017-05-14T07:47:22Z</time>
      </trkpt>
      <trkpt lat="49.38638" lon="1.15854">
        <ele>133.566269</ele>
        <time>2017-05-14T07:47:34Z</time>
      </trkpt>
      <trkpt lat="49.38628" lon="1.15849">
        <ele>135.269958</ele>
        <time>2017-05-14T07:47:46Z</time>
      </trkpt>
      <trkpt lat="49.38613" lon="1.15845">
        <ele>136.930847</ele>
        <time>2017-05-14T07:47:58Z</time>
      </trkpt>
      <trkpt lat="49.38595" lon="1.1584">
        <ele>138.141739</ele>
        <time>2017-05-14T07:48:10Z</time>
      </trkpt>
      <trkpt lat="49.38576" lon="1.15832">
        <ele>139.249283</ele>
        <time>2017-05-14T07:48:22Z</time>
      </trkpt>
      <trkpt lat="49.38549" lon="1.15821">
        <ele>140.093826</ele>
        <time>2017-05-14T07:48:34Z</time>
      </trkpt>
      <trkpt lat="49.38534" lon="1.15816">
        <ele>140.935486</ele>
        <time>2017-05-14T07:48:46Z</time>
      </trkpt>
      <trkpt lat="49.38506" lon="1.15805">
        <ele>141.728912</ele>
        <time>2017-05-14T07:48:58Z</time>
      </trkpt>
      <trkpt lat="49.38475" lon="1.15794">
        <ele>142.775116</ele>
        <time>2017-05-14T07:49:10Z</time>
      </trkpt>
      <trkpt lat="49.38442" lon="1.15785">
        <ele>143.511612</ele>
        <time>2017-05-14T07:49:22Z</time>
      </trkpt>
      <trkpt lat="49.38406" lon="1.15776">
        <ele>144.162582</ele>
        <time>2017-05-14T07:49:34Z</time>
      </trkpt>
      <trkpt lat="49.38371" lon="1.15767">
        <ele>144.648788</ele>
        <time>2017-05-14T07:49:46Z</time>
      </trkpt>
      <trkpt lat="49.38333" lon="1.15757">
        <ele>144.775085</ele>
        <time>2017-05-14T07:50:10Z</time>
      </trkpt>
      <trkpt lat="49.38312" lon="1.15762">
        <ele>144.101318</ele>
        <time>2017-05-14T07:50:22Z</time>
      </trkpt>
      <trkpt lat="49.38281" lon="1.15769">
        <ele>143.942825</ele>
        <time>2017-05-14T07:50:34Z</time>
      </trkpt>
      <trkpt lat="49.38237" lon="1.15773">
        <ele>144.550598</ele>
        <time>2017-05-14T07:50:46Z</time>
      </trkpt>
      <trkpt lat="49.38188" lon="1.1577">
        <ele>144.27475</ele>
        <time>2017-05-14T07:50:58Z</time>
      </trkpt>
      <trkpt lat="49.38138" lon="1.15763">
        <ele>144.610474</ele>
        <time>2017-05-14T07:51:10Z</time>
      </trkpt>
      <trkpt lat="49.38085" lon="1.15767">
        <ele>144.980682</ele>
        <time>2017-05-14T07:51:22Z</time>
      </trkpt>
      <trkpt lat="49.38038" lon="1.15773">
        <ele>144.104782</ele>
        <time>2017-05-14T07:51:34Z</time>
      </trkpt>
      <trkpt lat="49.37994" lon="1.15805">
        <ele>143.491989</ele>
        <time>2017-05-14T07:51:46Z</time>
      </trkpt>
      <trkpt lat="49.37948" lon="1.15866">
        <ele>143.242371</ele>
        <time>2017-05-14T07:51:58Z</time>
      </trkpt>
      <trkpt lat="49.37908" lon="1.15924">
        <ele>142.364273</ele>
        <time>2017-05-14T07:52:10Z</time>
      </trkpt>
      <trkpt lat="49.37875" lon="1.15963">
        <ele>141.916672</ele>
        <time>2017-05-14T07:52:22Z</time>
      </trkpt>
      <trkpt lat="49.37838" lon="1.16008">
        <ele>141.829468</ele>
        <time>2017-05-14T07:52:34Z</time>
      </trkpt>
      <trkpt lat="49.37798" lon="1.1606">
        <ele>142.226669</ele>
        <time>2017-05-14T07:52:46Z</time>
      </trkpt>
      <trkpt lat="49.37767" lon="1.16129">
        <ele>149</ele>
        <time>2017-05-14T07:52:58Z</time>
      </trkpt>
      <trkpt lat="49.37752" lon="1.16083">
        <ele>144.720474</ele>
        <time>2017-05-14T07:53:10Z</time>
      </trkpt>
      <trkpt lat="49.37736" lon="1.16009">
        <ele>145.938675</ele>
        <time>2017-05-14T07:53:22Z</time>
      </trkpt>
      <trkpt lat="49.37718" lon="1.1593">
        <ele>145.474457</ele>
        <time>2017-05-14T07:53:34Z</time>
      </trkpt>
      <trkpt lat="49.37699" lon="1.15847">
        <ele>144.066177</ele>
        <time>2017-05-14T07:53:46Z</time>
      </trkpt>
      <trkpt lat="49.37679" lon="1.1576">
        <ele>142.969101</ele>
        <time>2017-05-14T07:53:58Z</time>
      </trkpt>
      <trkpt lat="49.37653" lon="1.15684">
        <ele>141.898239</ele>
        <time>2017-05-14T07:54:10Z</time>
      </trkpt>
      <trkpt lat="49.37602" lon="1.15665">
        <ele>141.276505</ele>
        <time>2017-05-14T07:54:22Z</time>
      </trkpt>
      <trkpt lat="49.37553" lon="1.15647">
        <ele>141.773315</ele>
        <time>2017-05-14T07:54:34Z</time>
      </trkpt>
      <trkpt lat="49.37505" lon="1.1564">
        <ele>143.019379</ele>
        <time>2017-05-14T07:54:46Z</time>
      </trkpt>
      <trkpt lat="49.37454" lon="1.15658">
        <ele>144.047043</ele>
        <time>2017-05-14T07:56:46Z</time>
      </trkpt>
      <trkpt lat="49.37403" lon="1.15689">
        <ele>144.549332</ele>
        <time>2017-05-14T07:56:58Z</time>
      </trkpt>
      <trkpt lat="49.37351" lon="1.15724">
        <ele>145.156006</ele>
        <time>2017-05-14T07:57:10Z</time>
      </trkpt>
      <trkpt lat="49.37331" lon="1.15732">
        <ele>151</ele>
        <time>2017-05-14T07:57:22Z</time>
      </trkpt>
      <trkpt lat="49.37312" lon="1.15725">
        <ele>145.365005</ele>
        <time>2017-05-14T07:57:34Z</time>
      </trkpt>
      <trkpt lat="49.37283" lon="1.15658">
        <ele>145.160309</ele>
        <time>2017-05-14T07:57:46Z</time>
      </trkpt>
      <trkpt lat="49.3723" lon="1.1561">
        <ele>144.636108</ele>
        <time>2017-05-14T07:57:58Z</time>
      </trkpt>
      <trkpt lat="49.37186" lon="1.15591">
        <ele>143.383804</ele>
        <time>2017-05-14T07:58:10Z</time>
      </trkpt>
      <trkpt lat="49.37132" lon="1.15573">
        <ele>140.755127</ele>
        <time>2017-05-14T07:58:22Z</time>
      </trkpt>
      <trkpt lat="49.37075" lon="1.15568">
        <ele>138.411667</ele>
        <time>2017-05-14T07:58:46Z</time>
      </trkpt>
      <trkpt lat="49.37051" lon="1.15563">
        <ele>141</ele>
        <time>2017-05-14T07:58:58Z</time>
      </trkpt>
      <trkpt lat="49.37061" lon="1.1554">
        <ele>135.885544</ele>
        <time>2017-05-14T07:59:10Z</time>
      </trkpt>
      <trkpt lat="49.37103" lon="1.1549">
        <ele>135.526489</ele>
        <time>2017-05-14T07:59:22Z</time>
      </trkpt>
      <trkpt lat="49.37145" lon="1.15438">
        <ele>137.572845</ele>
        <time>2017-05-14T07:59:34Z</time>
      </trkpt>
      <trkpt lat="49.37192" lon="1.15383">
        <ele>138.74054</ele>
        <time>2017-05-14T07:59:46Z</time>
      </trkpt>
      <trkpt lat="49.3724" lon="1.15325">
        <ele>139.027069</ele>
        <time>2017-05-14T07:59:58Z</time>
      </trkpt>
      <trkpt lat="49.37251" lon="1.15294">
        <ele>138.50119</ele>
        <time>2017-05-14T08:00:10Z</time>
      </trkpt>
      <trkpt lat="49.37254" lon="1.15298">
        <ele>138.479675</ele>
        <time>2017-05-14T08:00:26Z</time>
      </trkpt>
      <trkpt lat="49.37219" lon="1.15234">
        <ele>138.498535</ele>
        <time>2017-05-14T08:00:38Z</time>
      </trkpt>
      <trkpt lat="49.37157" lon="1.15162">
        <ele>137.821869</ele>
        <time>2017-05-14T08:00:50Z</time>
      </trkpt>
      <trkpt lat="49.3709" lon="1.15076">
        <ele>136.685669</ele>
        <time>2017-05-14T08:01:04Z</time>
      </trkpt>
      <trkpt lat="49.37038" lon="1.14984">
        <ele>134.875488</ele>
        <time>2017-05-14T08:01:18Z</time>
      </trkpt>
      <trkpt lat="49.37027" lon="1.14925">
        <ele>132.977676</ele>
        <time>2017-05-14T08:01:34Z</time>
      </trkpt>
      <trkpt lat="49.37039" lon="1.14876">
        <ele>131.960297</ele>
        <time>2017-05-14T08:01:48Z</time>
      </trkpt>
      <trkpt lat="49.37032" lon="1.14816">
        <ele>131.213364</ele>
        <time>2017-05-14T08:02:04Z</time>
      </trkpt>
      <trkpt lat="49.36946" lon="1.14792">
        <ele>128.857513</ele>
        <time>2017-05-14T08:02:16Z</time>
      </trkpt>
      <trkpt lat="49.36911" lon="1.14782">
        <ele>130</ele>
        <time>2017-05-14T08:02:28Z</time>
      </trkpt>
      <trkpt lat="49.36882" lon="1.14756">
        <ele>129.7</ele>
        <time>2017-05-14T08:02:40Z</time>
      </trkpt>
      <trkpt lat="49.36817" lon="1.14837">
        <ele>124.680244</ele>
        <time>2017-05-14T08:02:52Z</time>
      </trkpt>
      <trkpt lat="49.36762" lon="1.149">
        <ele>125.75309</ele>
        <time>2017-05-14T08:03:04Z</time>
      </trkpt>
      <trkpt lat="49.36734" lon="1.14969">
        <ele>124.265854</ele>
        <time>2017-05-14T08:03:16Z</time>
      </trkpt>
      <trkpt lat="49.36699" lon="1.15032">
        <ele>119.870407</ele>
        <time>2017-05-14T08:03:28Z</time>
      </trkpt>
      <trkpt lat="49.36666" lon="1.151">
        <ele>113.465286</ele>
        <time>2017-05-14T08:03:50Z</time>
      </trkpt>
      <trkpt lat="49.36652" lon="1.15151">
        <ele>108.478966</ele>
        <time>2017-05-14T08:04:02Z</time>
      </trkpt>
      <trkpt lat="49.36627" lon="1.15153">
        <ele>105.663162</ele>
        <time>2017-05-14T08:04:14Z</time>
      </trkpt>
      <trkpt lat="49.36607" lon="1.1518">
        <ele>106.569717</ele>
        <time>2017-05-14T08:04:26Z</time>
      </trkpt>
      <trkpt lat="49.36601" lon="1.15202">
        <ele>109.880287</ele>
        <time>2017-05-14T08:04:38Z</time>
      </trkpt>
      <trkpt lat="49.36597" lon="1.15219">
        <ele>111.699425</ele>
        <time>2017-05-14T08:04:50Z</time>
      </trkpt>
      <trkpt lat="49.36589" lon="1.15233">
        <ele>113.988953</ele>
        <time>2017-05-14T08:05:02Z</time>
      </trkpt>
      <trkpt lat="49.36585" lon="1.15245">
        <ele>116.295891</ele>
        <time>2017-05-14T08:05:14Z</time>
      </trkpt>
      <trkpt lat="49.36578" lon="1.15255">
        <ele>118.545769</ele>
        <time>2017-05-14T08:05:26Z</time>
      </trkpt>
      <trkpt lat="49.36569" lon="1.15264">
        <ele>121.359039</ele>
        <time>2017-05-14T08:05:38Z</time>
      </trkpt>
      <trkpt lat="49.3656" lon="1.15281">
        <ele>123.418358</ele>
        <time>2017-05-14T08:05:50Z</time>
      </trkpt>
      <trkpt lat="49.36549" lon="1.153">
        <ele>125.563927</ele>
        <time>2017-05-14T08:06:02Z</time>
      </trkpt>
      <trkpt lat="49.36542" lon="1.15333">
        <ele>126.666412</ele>
        <time>2017-05-14T08:06:14Z</time>
      </trkpt>
      <trkpt lat="49.36535" lon="1.1538">
        <ele>127.855209</ele>
        <time>2017-05-14T08:06:26Z</time>
      </trkpt>
      <trkpt lat="49.36505" lon="1.15403">
        <ele>128.626083</ele>
        <time>2017-05-14T08:06:38Z</time>
      </trkpt>
      <trkpt lat="49.36483" lon="1.15388">
        <ele>128.188965</ele>
        <time>2017-05-14T08:06:50Z</time>
      </trkpt>
      <trkpt lat="49.36461" lon="1.15374">
        <ele>127.225052</ele>
        <time>2017-05-14T08:07:02Z</time>
      </trkpt>
      <trkpt lat="49.36427" lon="1.15391">
        <ele>127.500557</ele>
        <time>2017-05-14T08:07:14Z</time>
      </trkpt>
      <trkpt lat="49.36412" lon="1.15449">
        <ele>126.618713</ele>
        <time>2017-05-14T08:07:26Z</time>
      </trkpt>
      <trkpt lat="49.36411" lon="1.15487">
        <ele>124.045639</ele>
        <time>2017-05-14T08:07:38Z</time>
      </trkpt>
      <trkpt lat="49.36439" lon="1.15532">
        <ele>124.579941</ele>
        <time>2017-05-14T08:07:50Z</time>
      </trkpt>
      <trkpt lat="49.36448" lon="1.15557">
        <ele>134.2</ele>
        <time>2017-05-14T08:08:02Z</time>
      </trkpt>
      <trkpt lat="49.36438" lon="1.15587">
        <ele>125.902733</ele>
        <time>2017-05-14T08:10:38Z</time>
      </trkpt>
      <trkpt lat="49.36401" lon="1.15659">
        <ele>126.55442</ele>
        <time>2017-05-14T08:10:50Z</time>
      </trkpt>
      <trkpt lat="49.36364" lon="1.15757">
        <ele>125.380173</ele>
        <time>2017-05-14T08:11:02Z</time>
      </trkpt>
      <trkpt lat="49.36332" lon="1.15832">
        <ele>122.634277</ele>
        <time>2017-05-14T08:11:14Z</time>
      </trkpt>
      <trkpt lat="49.36321" lon="1.15862">
        <ele>132</ele>
        <time>2017-05-14T08:11:26Z</time>
      </trkpt>
      <trkpt lat="49.36303" lon="1.15884">
        <ele>121.412399</ele>
        <time>2017-05-14T08:11:38Z</time>
      </trkpt>
      <trkpt lat="49.36269" lon="1.15918">
        <ele>124.099373</ele>
        <time>2017-05-14T08:11:50Z</time>
      </trkpt>
      <trkpt lat="49.36244" lon="1.15966">
        <ele>127.642754</ele>
        <time>2017-05-14T08:12:02Z</time>
      </trkpt>
      <trkpt lat="49.36187" lon="1.15967">
        <ele>128.893158</ele>
        <time>2017-05-14T08:12:14Z</time>
      </trkpt>
      <trkpt lat="49.36135" lon="1.15962">
        <ele>129.060577</ele>
        <time>2017-05-14T08:12:26Z</time>
      </trkpt>
      <trkpt lat="49.36094" lon="1.15926">
        <ele>128.946152</ele>
        <time>2017-05-14T08:12:38Z</time>
      </trkpt>
      <trkpt lat="49.36046" lon="1.15885">
        <ele>126.793732</ele>
        <time>2017-05-14T08:13:02Z</time>
      </trkpt>
      <trkpt lat="49.35997" lon="1.15853">
        <ele>121.465828</ele>
        <time>2017-05-14T08:13:14Z</time>
      </trkpt>
      <trkpt lat="49.35962" lon="1.15791">
        <ele>113.151062</ele>
        <time>2017-05-14T08:13:26Z</time>
      </trkpt>
      <trkpt lat="49.3592" lon="1.15712">
        <ele>104.750381</ele>
        <time>2017-05-14T08:13:38Z</time>
      </trkpt>
      <trkpt lat="49.3586" lon="1.15634">
        <ele>98.638741</ele>
        <time>2017-05-14T08:13:50Z</time>
      </trkpt>
      <trkpt lat="49.35827" lon="1.15553">
        <ele>92.296753</ele>
        <time>2017-05-14T08:14:14Z</time>
      </trkpt>
      <trkpt lat="49.35784" lon="1.1547">
        <ele>87.946625</ele>
        <time>2017-05-14T08:14:38Z</time>
      </trkpt>
      <trkpt lat="49.35727" lon="1.15377">
        <ele>83.158524</ele>
        <time>2017-05-14T08:14:50Z</time>
      </trkpt>
      <trkpt lat="49.35667" lon="1.15292">
        <ele>79.519753</ele>
        <time>2017-05-14T08:15:02Z</time>
      </trkpt>
      <trkpt lat="49.35605" lon="1.15235">
        <ele>76.677071</ele>
        <time>2017-05-14T08:15:14Z</time>
      </trkpt>
      <trkpt lat="49.3557" lon="1.15207">
        <ele>80.7</ele>
        <time>2017-05-14T08:15:26Z</time>
      </trkpt>
      <trkpt lat="49.356" lon="1.15184">
        <ele>80.1</ele>
        <time>2017-05-14T08:15:38Z</time>
      </trkpt>
      <trkpt lat="49.3559" lon="1.15156">
        <ele>75.020828</ele>
        <time>2017-05-14T08:15:50Z</time>
      </trkpt>
      <trkpt lat="49.35569" lon="1.15084">
        <ele>74.30394</ele>
        <time>2017-05-14T08:16:02Z</time>
      </trkpt>
      <trkpt lat="49.35558" lon="1.15016">
        <ele>73.905495</ele>
        <time>2017-05-14T08:16:14Z</time>
      </trkpt>
      <trkpt lat="49.35551" lon="1.14971">
        <ele>73.606773</ele>
        <time>2017-05-14T08:16:26Z</time>
      </trkpt>
      <trkpt lat="49.35548" lon="1.14912">
        <ele>73.523735</ele>
        <time>2017-05-14T08:16:38Z</time>
      </trkpt>
      <trkpt lat="49.35544" lon="1.14834">
        <ele>73.093834</ele>
        <time>2017-05-14T08:16:50Z</time>
      </trkpt>
      <trkpt lat="49.3554" lon="1.14764">
        <ele>72.829132</ele>
        <time>2017-05-14T08:17:02Z</time>
      </trkpt>
      <trkpt lat="49.35537" lon="1.14683">
        <ele>72.893837</ele>
        <time>2017-05-14T08:17:29Z</time>
      </trkpt>
      <trkpt lat="49.35545" lon="1.14582">
        <ele>72.690102</ele>
        <time>2017-05-14T08:17:41Z</time>
      </trkpt>
      <trkpt lat="49.35559" lon="1.14481">
        <ele>71.351898</ele>
        <time>2017-05-14T08:17:53Z</time>
      </trkpt>
      <trkpt lat="49.35556" lon="1.14376">
        <ele>69.178276</ele>
        <time>2017-05-14T08:18:05Z</time>
      </trkpt>
      <trkpt lat="49.35551" lon="1.14289">
        <ele>70.3</ele>
        <time>2017-05-14T08:18:17Z</time>
      </trkpt>
      <trkpt lat="49.35577" lon="1.14287">
        <ele>70</ele>
        <time>2017-05-14T08:18:29Z</time>
      </trkpt>
      <trkpt lat="49.35589" lon="1.14283">
        <ele>67</ele>
        <time>2017-05-14T08:18:41Z</time>
      </trkpt>
      <trkpt lat="49.356" lon="1.14276">
        <ele>64.644554</ele>
        <time>2017-05-14T08:18:53Z</time>
      </trkpt>
      <trkpt lat="49.35625" lon="1.14263">
        <ele>66</ele>
        <time>2017-05-14T08:19:05Z</time>
      </trkpt>
      <trkpt lat="49.35645" lon="1.14236">
        <ele>59.273716</ele>
        <time>2017-05-14T08:19:17Z</time>
      </trkpt>
      <trkpt lat="49.35682" lon="1.14202">
        <ele>49.196739</ele>
        <time>2017-05-14T08:19:29Z</time>
      </trkpt>
      <trkpt lat="49.35699" lon="1.14121">
        <ele>44.231468</ele>
        <time>2017-05-14T08:19:41Z</time>
      </trkpt>
      <trkpt lat="49.35718" lon="1.14079">
        <ele>58</ele>
        <time>2017-05-14T08:19:53Z</time>
      </trkpt>
      <trkpt lat="49.35743" lon="1.14052">
        <ele>42.757656</ele>
        <time>2017-05-14T08:20:05Z</time>
      </trkpt>
      <trkpt lat="49.35801" lon="1.14028">
        <ele>58.8</ele>
        <time>2017-05-14T08:20:29Z</time>
      </trkpt>
      <trkpt lat="49.35827" lon="1.14012">
        <ele>43.805885</ele>
        <time>2017-05-14T08:20:41Z</time>
      </trkpt>
      <trkpt lat="49.35848" lon="1.14004">
        <ele>60.2</ele>
        <time>2017-05-14T08:20:53Z</time>
      </trkpt>
      <trkpt lat="49.35876" lon="1.1402">
        <ele>49.453503</ele>
        <time>2017-05-14T08:21:05Z</time>
      </trkpt>
      <trkpt lat="49.35903" lon="1.14049">
        <ele>50.076904</ele>
        <time>2017-05-14T08:21:17Z</time>
      </trkpt>
      <trkpt lat="49.3592" lon="1.14058">
        <ele>64</ele>
        <time>2017-05-14T08:21:29Z</time>
      </trkpt>
      <trkpt lat="49.35943" lon="1.1406">
        <ele>50.467445</ele>
        <time>2017-05-14T08:21:41Z</time>
      </trkpt>
      <trkpt lat="49.35978" lon="1.14051">
        <ele>50.569073</ele>
        <time>2017-05-14T08:21:53Z</time>
      </trkpt>
      <trkpt lat="49.35995" lon="1.1406">
        <ele>51.517612</ele>
        <time>2017-05-14T08:22:05Z</time>
      </trkpt>
      <trkpt lat="49.36015" lon="1.14069">
        <ele>54.030613</ele>
        <time>2017-05-14T08:22:17Z</time>
      </trkpt>
      <trkpt lat="49.36032" lon="1.14068">
        <ele>56.688816</ele>
        <time>2017-05-14T08:22:29Z</time>
      </trkpt>
      <trkpt lat="49.36052" lon="1.14062">
        <ele>58.94553</ele>
        <time>2017-05-14T08:22:41Z</time>
      </trkpt>
      <trkpt lat="49.36066" lon="1.14054">
        <ele>61.328312</ele>
        <time>2017-05-14T08:22:53Z</time>
      </trkpt>
      <trkpt lat="49.3608" lon="1.14049">
        <ele>63.665558</ele>
        <time>2017-05-14T08:23:05Z</time>
      </trkpt>
      <trkpt lat="49.36097" lon="1.14058">
        <ele>65.269997</ele>
        <time>2017-05-14T08:23:17Z</time>
      </trkpt>
      <trkpt lat="49.36114" lon="1.14079">
        <ele>66.377075</ele>
        <time>2017-05-14T08:23:29Z</time>
      </trkpt>
      <trkpt lat="49.36123" lon="1.14095">
        <ele>75</ele>
        <time>2017-05-14T08:23:41Z</time>
      </trkpt>
      <trkpt lat="49.3613" lon="1.14099">
        <ele>67.830338</ele>
        <time>2017-05-14T08:23:53Z</time>
      </trkpt>
      <trkpt lat="49.36142" lon="1.14106">
        <ele>70.922745</ele>
        <time>2017-05-14T08:24:05Z</time>
      </trkpt>
      <trkpt lat="49.36164" lon="1.14119">
        <ele>72.332001</ele>
        <time>2017-05-14T08:24:48Z</time>
      </trkpt>
      <trkpt lat="49.36189" lon="1.14127">
        <ele>74.498955</ele>
        <time>2017-05-14T08:25:00Z</time>
      </trkpt>
      <trkpt lat="49.36212" lon="1.14136">
        <ele>77.293236</ele>
        <time>2017-05-14T08:25:12Z</time>
      </trkpt>
      <trkpt lat="49.36234" lon="1.14143">
        <ele>80.111603</ele>
        <time>2017-05-14T08:26:00Z</time>
      </trkpt>
      <trkpt lat="49.36256" lon="1.1415">
        <ele>83.270996</ele>
        <time>2017-05-14T08:26:12Z</time>
      </trkpt>
      <trkpt lat="49.36277" lon="1.14157">
        <ele>86.263077</ele>
        <time>2017-05-14T08:26:36Z</time>
      </trkpt>
      <trkpt lat="49.36295" lon="1.14168">
        <ele>89.092514</ele>
        <time>2017-05-14T08:27:00Z</time>
      </trkpt>
      <trkpt lat="49.36314" lon="1.14178">
        <ele>91.359734</ele>
        <time>2017-05-14T08:27:12Z</time>
      </trkpt>
      <trkpt lat="49.3633" lon="1.14183">
        <ele>93.868179</ele>
        <time>2017-05-14T08:27:24Z</time>
      </trkpt>
      <trkpt lat="49.36347" lon="1.14188">
        <ele>96.25885</ele>
        <time>2017-05-14T08:27:36Z</time>
      </trkpt>
      <trkpt lat="49.36365" lon="1.14191">
        <ele>98.506706</ele>
        <time>2017-05-14T08:27:48Z</time>
      </trkpt>
      <trkpt lat="49.36383" lon="1.14187">
        <ele>100.492363</ele>
        <time>2017-05-14T08:28:12Z</time>
      </trkpt>
      <trkpt lat="49.36401" lon="1.14178">
        <ele>102.55278</ele>
        <time>2017-05-14T08:28:24Z</time>
      </trkpt>
      <trkpt lat="49.36419" lon="1.14181">
        <ele>111.3</ele>
        <time>2017-05-14T08:28:36Z</time>
      </trkpt>
      <trkpt lat="49.36433" lon="1.14201">
        <ele>106.394608</ele>
        <time>2017-05-14T08:28:48Z</time>
      </trkpt>
      <trkpt lat="49.36449" lon="1.14232">
        <ele>107.577011</ele>
        <time>2017-05-14T08:30:05Z</time>
      </trkpt>
      <trkpt lat="49.36466" lon="1.14263">
        <ele>108.928116</ele>
        <time>2017-05-14T08:30:17Z</time>
      </trkpt>
      <trkpt lat="49.36484" lon="1.14298">
        <ele>110.417824</ele>
        <time>2017-05-14T08:30:43Z</time>
      </trkpt>
      <trkpt lat="49.36504" lon="1.14331">
        <ele>111.834099</ele>
        <time>2017-05-14T08:31:43Z</time>
      </trkpt>
      <trkpt lat="49.36526" lon="1.14366">
        <ele>113.263718</ele>
        <time>2017-05-14T08:31:55Z</time>
      </trkpt>
      <trkpt lat="49.36548" lon="1.14401">
        <ele>114.550011</ele>
        <time>2017-05-14T08:32:07Z</time>
      </trkpt>
      <trkpt lat="49.36564" lon="1.14412">
        <ele>118</ele>
        <time>2017-05-14T08:32:19Z</time>
      </trkpt>
      <trkpt lat="49.3658" lon="1.1441">
        <ele>115.702599</ele>
        <time>2017-05-14T08:32:31Z</time>
      </trkpt>
      <trkpt lat="49.36612" lon="1.14398">
        <ele>116.872452</ele>
        <time>2017-05-14T08:32:43Z</time>
      </trkpt>
      <trkpt lat="49.36643" lon="1.14388">
        <ele>118.410522</ele>
        <time>2017-05-14T08:32:55Z</time>
      </trkpt>
      <trkpt lat="49.36673" lon="1.14378">
        <ele>119.631874</ele>
        <time>2017-05-14T08:33:19Z</time>
      </trkpt>
      <trkpt lat="49.36704" lon="1.14367">
        <ele>120.915123</ele>
        <time>2017-05-14T08:40:49Z</time>
      </trkpt>
      <trkpt lat="49.36736" lon="1.14356">
        <ele>122.052193</ele>
        <time>2017-05-14T08:41:01Z</time>
      </trkpt>
      <trkpt lat="49.3677" lon="1.14351">
        <ele>123.00705</ele>
        <time>2017-05-14T08:41:13Z</time>
      </trkpt>
      <trkpt lat="49.36807" lon="1.14352">
        <ele>124.165031</ele>
        <time>2017-05-14T08:41:25Z</time>
      </trkpt>
      <trkpt lat="49.36846" lon="1.14353">
        <ele>125.085678</ele>
        <time>2017-05-14T08:41:37Z</time>
      </trkpt>
      <trkpt lat="49.36891" lon="1.14357">
        <ele>125.200066</ele>
        <time>2017-05-14T08:42:19Z</time>
      </trkpt>
      <trkpt lat="49.36938" lon="1.14356">
        <ele>125.30455</ele>
        <time>2017-05-14T08:42:31Z</time>
      </trkpt>
      <trkpt lat="49.36979" lon="1.14353">
        <ele>125.156319</ele>
        <time>2017-05-14T08:42:53Z</time>
      </trkpt>
      <trkpt lat="49.36975" lon="1.14334">
        <ele>124.204926</ele>
        <time>2017-05-14T08:43:05Z</time>
      </trkpt>
      <trkpt lat="49.36949" lon="1.14271">
        <ele>124.275154</ele>
        <time>2017-05-14T08:43:17Z</time>
      </trkpt>
      <trkpt lat="49.36926" lon="1.14183">
        <ele>124.018745</ele>
        <time>2017-05-14T08:43:31Z</time>
      </trkpt>
      <trkpt lat="49.36903" lon="1.14101">
        <ele>127.6</ele>
        <time>2017-05-14T08:43:43Z</time>
      </trkpt>
      <trkpt lat="49.36878" lon="1.14018">
        <ele>128.1</ele>
        <time>2017-05-14T08:44:01Z</time>
      </trkpt>
      <trkpt lat="49.36851" lon="1.13935">
        <ele>127</ele>
        <time>2017-05-14T08:44:21Z</time>
      </trkpt>
      <trkpt lat="49.36841" lon="1.13892">
        <ele>126</ele>
        <time>2017-05-14T08:44:35Z</time>
      </trkpt>
      <trkpt lat="49.36831" lon="1.13851">
        <ele>116.386826</ele>
        <time>2017-05-14T08:44:47Z</time>
      </trkpt>
      <trkpt lat="49.36838" lon="1.13806">
        <ele>123</ele>
        <time>2017-05-14T08:44:59Z</time>
      </trkpt>
      <trkpt lat="49.3684" lon="1.1376">
        <ele>111.335609</ele>
        <time>2017-05-14T08:45:11Z</time>
      </trkpt>
      <trkpt lat="49.36831" lon="1.13722">
        <ele>119</ele>
        <time>2017-05-14T08:45:23Z</time>
      </trkpt>
      <trkpt lat="49.36819" lon="1.13687">
        <ele>117.5</ele>
        <time>2017-05-14T08:45:35Z</time>
      </trkpt>
      <trkpt lat="49.36801" lon="1.1363">
        <ele>95.685326</ele>
        <time>2017-05-14T08:45:47Z</time>
      </trkpt>
      <trkpt lat="49.36781" lon="1.13567">
        <ele>99.9</ele>
        <time>2017-05-14T08:45:59Z</time>
      </trkpt>
      <trkpt lat="49.36758" lon="1.1348">
        <ele>80.684128</ele>
        <time>2017-05-14T08:46:11Z</time>
      </trkpt>
      <trkpt lat="49.36733" lon="1.13403">
        <ele>71.325958</ele>
        <time>2017-05-14T08:46:23Z</time>
      </trkpt>
      <trkpt lat="49.36706" lon="1.13346">
        <ele>63.678417</ele>
        <time>2017-05-14T08:46:35Z</time>
      </trkpt>
      <trkpt lat="49.36689" lon="1.13272">
        <ele>55.883831</ele>
        <time>2017-05-14T08:46:47Z</time>
      </trkpt>
      <trkpt lat="49.3668" lon="1.13202">
        <ele>49.226219</ele>
        <time>2017-05-14T08:46:59Z</time>
      </trkpt>
      <trkpt lat="49.36696" lon="1.13121">
        <ele>56</ele>
        <time>2017-05-14T08:47:15Z</time>
      </trkpt>
      <trkpt lat="49.3672" lon="1.13059">
        <ele>36.357136</ele>
        <time>2017-05-14T08:47:27Z</time>
      </trkpt>
      <trkpt lat="49.36735" lon="1.13028">
        <ele>30.74411</ele>
        <time>2017-05-14T08:47:39Z</time>
      </trkpt>
      <trkpt lat="49.36754" lon="1.12986">
        <ele>28</ele>
        <time>2017-05-14T08:47:51Z</time>
      </trkpt>
      <trkpt lat="49.36779" lon="1.12958">
        <ele>24.356609</ele>
        <time>2017-05-14T08:48:03Z</time>
      </trkpt>
      <trkpt lat="49.36813" lon="1.1294">
        <ele>16.459789</ele>
        <time>2017-05-14T08:48:15Z</time>
      </trkpt>
      <trkpt lat="49.36839" lon="1.12952">
        <ele>17.9</ele>
        <time>2017-05-14T08:48:27Z</time>
      </trkpt>
      <trkpt lat="49.3687" lon="1.12977">
        <ele>18</ele>
        <time>2017-05-14T08:48:39Z</time>
      </trkpt>
      <trkpt lat="49.36875" lon="1.12957">
        <ele>2.6495</ele>
        <time>2017-05-14T08:48:54Z</time>
      </trkpt>
      <trkpt lat="49.36871" lon="1.12914">
        <ele>1.592276</ele>
        <time>2017-05-14T08:49:06Z</time>
      </trkpt>
      <trkpt lat="49.36884" lon="1.12896">
        <ele>11</ele>
        <time>2017-05-14T08:49:18Z</time>
      </trkpt>
      <trkpt lat="49.36919" lon="1.12968">
        <ele>15.2</ele>
        <time>2017-05-14T08:49:32Z</time>
      </trkpt>
      <trkpt lat="49.36967" lon="1.13026">
        <ele>17.3</ele>
        <time>2017-05-14T08:49:44Z</time>
      </trkpt>
      <trkpt lat="49.37011" lon="1.13063">
        <ele>18</ele>
        <time>2017-05-14T08:49:56Z</time>
      </trkpt>
      <trkpt lat="49.37056" lon="1.1309">
        <ele>19.2</ele>
        <time>2017-05-14T08:51:07Z</time>
      </trkpt>
      <trkpt lat="49.37096" lon="1.13101">
        <ele>2.099364</ele>
        <time>2017-05-14T08:51:19Z</time>
      </trkpt>
      <trkpt lat="49.37132" lon="1.13134">
        <ele>3.556366</ele>
        <time>2017-05-14T08:51:31Z</time>
      </trkpt>
      <trkpt lat="49.37159" lon="1.13172">
        <ele>5.459235</ele>
        <time>2017-05-14T08:51:43Z</time>
      </trkpt>
      <trkpt lat="49.37184" lon="1.13212">
        <ele>7.328345</ele>
        <time>2017-05-14T08:51:55Z</time>
      </trkpt>
      <trkpt lat="49.37202" lon="1.13263">
        <ele>9.605641</ele>
        <time>2017-05-14T08:52:07Z</time>
      </trkpt>
      <trkpt lat="49.37218" lon="1.13314">
        <ele>11.401974</ele>
        <time>2017-05-14T08:52:21Z</time>
      </trkpt>
      <trkpt lat="49.37238" lon="1.13374">
        <ele>12.593447</ele>
        <time>2017-05-14T08:52:33Z</time>
      </trkpt>
      <trkpt lat="49.37263" lon="1.13436">
        <ele>32.3</ele>
        <time>2017-05-14T08:52:45Z</time>
      </trkpt>
      <trkpt lat="49.37289" lon="1.13494">
        <ele>14.511752</ele>
        <time>2017-05-14T08:52:57Z</time>
      </trkpt>
      <trkpt lat="49.37305" lon="1.1352">
        <ele>33.8</ele>
        <time>2017-05-14T08:53:09Z</time>
      </trkpt>
      <trkpt lat="49.37316" lon="1.13536">
        <ele>15.392559</ele>
        <time>2017-05-14T08:53:34Z</time>
      </trkpt>
      <trkpt lat="49.37338" lon="1.13577">
        <ele>16.007568</ele>
        <time>2017-05-14T08:53:46Z</time>
      </trkpt>
      <trkpt lat="49.37367" lon="1.13622">
        <ele>17.273745</ele>
        <time>2017-05-14T08:53:58Z</time>
      </trkpt>
      <trkpt lat="49.37397" lon="1.13675">
        <ele>18.314363</ele>
        <time>2017-05-14T08:54:10Z</time>
      </trkpt>
      <trkpt lat="49.37409" lon="1.13706">
        <ele>33</ele>
        <time>2017-05-14T08:54:22Z</time>
      </trkpt>
      <trkpt lat="49.37429" lon="1.13733">
        <ele>19.492365</ele>
        <time>2017-05-14T08:54:34Z</time>
      </trkpt>
      <trkpt lat="49.37445" lon="1.13758">
        <ele>38.2</ele>
        <time>2017-05-14T08:54:46Z</time>
      </trkpt>
      <trkpt lat="49.37451" lon="1.13751">
        <ele>39.3</ele>
        <time>2017-05-14T08:54:58Z</time>
      </trkpt>
      <trkpt lat="49.37454" lon="1.13743">
        <ele>26.629541</ele>
        <time>2017-05-14T08:55:10Z</time>
      </trkpt>
      <trkpt lat="49.37455" lon="1.1373">
        <ele>29.141357</ele>
        <time>2017-05-14T08:55:22Z</time>
      </trkpt>
      <trkpt lat="49.37466" lon="1.13728">
        <ele>33.849689</ele>
        <time>2017-05-14T08:55:34Z</time>
      </trkpt>
      <trkpt lat="49.37473" lon="1.13719">
        <ele>36.104912</ele>
        <time>2017-05-14T08:55:58Z</time>
      </trkpt>
      <trkpt lat="49.37475" lon="1.13707">
        <ele>38.568672</ele>
        <time>2017-05-14T08:56:12Z</time>
      </trkpt>
      <trkpt lat="49.37468" lon="1.13685">
        <ele>40.676693</ele>
        <time>2017-05-14T08:56:24Z</time>
      </trkpt>
      <trkpt lat="49.37465" lon="1.13675">
        <ele>42.017933</ele>
        <time>2017-05-14T08:56:36Z</time>
      </trkpt>
      <trkpt lat="49.37457" lon="1.13663">
        <ele>45.241062</ele>
        <time>2017-05-14T08:57:00Z</time>
      </trkpt>
      <trkpt lat="49.3745" lon="1.13645">
        <ele>49.40237</ele>
        <time>2017-05-14T08:57:12Z</time>
      </trkpt>
      <trkpt lat="49.37445" lon="1.13628">
        <ele>51.844299</ele>
        <time>2017-05-14T08:57:24Z</time>
      </trkpt>
      <trkpt lat="49.37441" lon="1.13614">
        <ele>53.611355</ele>
        <time>2017-05-14T08:57:36Z</time>
      </trkpt>
      <trkpt lat="49.37438" lon="1.136">
        <ele>55.487614</ele>
        <time>2017-05-14T08:57:48Z</time>
      </trkpt>
      <trkpt lat="49.37435" lon="1.13586">
        <ele>57.593945</ele>
        <time>2017-05-14T08:58:00Z</time>
      </trkpt>
      <trkpt lat="49.37433" lon="1.13572">
        <ele>59.487411</ele>
        <time>2017-05-14T08:58:12Z</time>
      </trkpt>
      <trkpt lat="49.37429" lon="1.13557">
        <ele>61.595325</ele>
        <time>2017-05-14T08:58:24Z</time>
      </trkpt>
      <trkpt lat="49.37426" lon="1.13542">
        <ele>63.836651</ele>
        <time>2017-05-14T08:58:36Z</time>
      </trkpt>
      <trkpt lat="49.37423" lon="1.13528">
        <ele>66.228241</ele>
        <time>2017-05-14T08:58:48Z</time>
      </trkpt>
      <trkpt lat="49.3742" lon="1.13514">
        <ele>68.528069</ele>
        <time>2017-05-14T08:59:00Z</time>
      </trkpt>
      <trkpt lat="49.37416" lon="1.13498">
        <ele>70.605751</ele>
        <time>2017-05-14T08:59:12Z</time>
      </trkpt>
      <trkpt lat="49.37416" lon="1.13481">
        <ele>72.653442</ele>
        <time>2017-05-14T09:00:42Z</time>
      </trkpt>
      <trkpt lat="49.3742" lon="1.13467">
        <ele>75.035934</ele>
        <time>2017-05-14T09:01:06Z</time>
      </trkpt>
      <trkpt lat="49.37421" lon="1.1345">
        <ele>77.439163</ele>
        <time>2017-05-14T09:01:26Z</time>
      </trkpt>
      <trkpt lat="49.37415" lon="1.1343">
        <ele>79.700027</ele>
        <time>2017-05-14T09:02:02Z</time>
      </trkpt>
      <trkpt lat="49.37396" lon="1.13396">
        <ele>80.254639</ele>
        <time>2017-05-14T09:02:14Z</time>
      </trkpt>
      <trkpt lat="49.3738" lon="1.13346">
        <ele>80.548111</ele>
        <time>2017-05-14T09:02:38Z</time>
      </trkpt>
      <trkpt lat="49.37372" lon="1.13299">
        <ele>82.810631</ele>
        <time>2017-05-14T09:03:14Z</time>
      </trkpt>
      <trkpt lat="49.37362" lon="1.13255">
        <ele>84.837471</ele>
        <time>2017-05-14T09:03:26Z</time>
      </trkpt>
      <trkpt lat="49.37354" lon="1.13201">
        <ele>85.92347</ele>
        <time>2017-05-14T09:07:11Z</time>
      </trkpt>
      <trkpt lat="49.37346" lon="1.1315">
        <ele>86.745506</ele>
        <time>2017-05-14T09:07:23Z</time>
      </trkpt>
      <trkpt lat="49.37345" lon="1.13122">
        <ele>88.232376</ele>
        <time>2017-05-14T09:07:47Z</time>
      </trkpt>
      <trkpt lat="49.37349" lon="1.13105">
        <ele>90.449669</ele>
        <time>2017-05-14T09:07:59Z</time>
      </trkpt>
      <trkpt lat="49.37352" lon="1.13089">
        <ele>92.387581</ele>
        <time>2017-05-14T09:08:11Z</time>
      </trkpt>
      <trkpt lat="49.37353" lon="1.13071">
        <ele>94.601036</ele>
        <time>2017-05-14T09:08:48Z</time>
      </trkpt>
      <trkpt lat="49.37346" lon="1.13051">
        <ele>96.720924</ele>
        <time>2017-05-14T09:09:00Z</time>
      </trkpt>
      <trkpt lat="49.37336" lon="1.13024">
        <ele>97.392601</ele>
        <time>2017-05-14T09:09:12Z</time>
      </trkpt>
      <trkpt lat="49.37333" lon="1.12996">
        <ele>98.870361</ele>
        <time>2017-05-14T09:09:24Z</time>
      </trkpt>
      <trkpt lat="49.37337" lon="1.12982">
        <ele>110.4</ele>
        <time>2017-05-14T09:09:36Z</time>
      </trkpt>
      <trkpt lat="49.37303" lon="1.12967">
        <ele>103.432205</ele>
        <time>2017-05-14T09:09:48Z</time>
      </trkpt>
      <trkpt lat="49.37259" lon="1.12962">
        <ele>97.080238</ele>
        <time>2017-05-14T09:10:00Z</time>
      </trkpt>
      <trkpt lat="49.37225" lon="1.12965">
        <ele>87.803085</ele>
        <time>2017-05-14T09:10:12Z</time>
      </trkpt>
      <trkpt lat="49.37194" lon="1.12944">
        <ele>81.417221</ele>
        <time>2017-05-14T09:10:24Z</time>
      </trkpt>
      <trkpt lat="49.3715" lon="1.12908">
        <ele>78.970413</ele>
        <time>2017-05-14T09:11:00Z</time>
      </trkpt>
      <trkpt lat="49.37114" lon="1.12876">
        <ele>79.440758</ele>
        <time>2017-05-14T09:11:12Z</time>
      </trkpt>
      <trkpt lat="49.37105" lon="1.12854">
        <ele>80.70887</ele>
        <time>2017-05-14T09:11:24Z</time>
      </trkpt>
      <trkpt lat="49.37115" lon="1.12852">
        <ele>83.44915</ele>
        <time>2017-05-14T09:11:36Z</time>
      </trkpt>
      <trkpt lat="49.37122" lon="1.12847">
        <ele>85.556282</ele>
        <time>2017-05-14T09:11:48Z</time>
      </trkpt>
      <trkpt lat="49.37129" lon="1.1284">
        <ele>87.525787</ele>
        <time>2017-05-14T09:12:00Z</time>
      </trkpt>
      <trkpt lat="49.37138" lon="1.12837">
        <ele>89.492638</ele>
        <time>2017-05-14T09:12:12Z</time>
      </trkpt>
      <trkpt lat="49.37156" lon="1.12847">
        <ele>91.882568</ele>
        <time>2017-05-14T09:12:24Z</time>
      </trkpt>
      <trkpt lat="49.37175" lon="1.1285">
        <ele>92.845688</ele>
        <time>2017-05-14T09:12:36Z</time>
      </trkpt>
      <trkpt lat="49.37192" lon="1.12856">
        <ele>95.233322</ele>
        <time>2017-05-14T09:12:48Z</time>
      </trkpt>
      <trkpt lat="49.37215" lon="1.12874">
        <ele>96.198441</ele>
        <time>2017-05-14T09:13:00Z</time>
      </trkpt>
      <trkpt lat="49.37252" lon="1.12908">
        <ele>95.239716</ele>
        <time>2017-05-14T09:13:12Z</time>
      </trkpt>
      <trkpt lat="49.37279" lon="1.12925">
        <ele>95.298599</ele>
        <time>2017-05-14T09:13:24Z</time>
      </trkpt>
      <trkpt lat="49.37297" lon="1.12932">
        <ele>97.394089</ele>
        <time>2017-05-14T09:13:36Z</time>
      </trkpt>
      <trkpt lat="49.37312" lon="1.12941">
        <ele>99.779968</ele>
        <time>2017-05-14T09:13:48Z</time>
      </trkpt>
      <trkpt lat="49.37326" lon="1.12955">
        <ele>102.049828</ele>
        <time>2017-05-14T09:14:00Z</time>
      </trkpt>
      <trkpt lat="49.3734" lon="1.12973">
        <ele>103.790817</ele>
        <time>2017-05-14T09:14:14Z</time>
      </trkpt>
      <trkpt lat="49.37353" lon="1.12981">
        <ele>105.370651</ele>
        <time>2017-05-14T09:14:26Z</time>
      </trkpt>
      <trkpt lat="49.37376" lon="1.12986">
        <ele>110.887711</ele>
        <time>2017-05-14T09:14:38Z</time>
      </trkpt>
      <trkpt lat="49.37392" lon="1.12991">
        <ele>113.141708</ele>
        <time>2017-05-14T09:14:50Z</time>
      </trkpt>
      <trkpt lat="49.37408" lon="1.12997">
        <ele>115.114037</ele>
        <time>2017-05-14T09:15:02Z</time>
      </trkpt>
      <trkpt lat="49.37426" lon="1.12999">
        <ele>116.721497</ele>
        <time>2017-05-14T09:15:14Z</time>
      </trkpt>
      <trkpt lat="49.37467" lon="1.13005">
        <ele>127.6</ele>
        <time>2017-05-14T09:15:26Z</time>
      </trkpt>
      <trkpt lat="49.37512" lon="1.13035">
        <ele>116.979866</ele>
        <time>2017-05-14T09:15:38Z</time>
      </trkpt>
      <trkpt lat="49.37548" lon="1.13101">
        <ele>116.778755</ele>
        <time>2017-05-14T09:15:50Z</time>
      </trkpt>
      <trkpt lat="49.37586" lon="1.13103">
        <ele>116.880394</ele>
        <time>2017-05-14T09:16:02Z</time>
      </trkpt>
      <trkpt lat="49.37626" lon="1.13108">
        <ele>118.211884</ele>
        <time>2017-05-14T09:16:14Z</time>
      </trkpt>
      <trkpt lat="49.37662" lon="1.13104">
        <ele>118.803551</ele>
        <time>2017-05-14T09:16:26Z</time>
      </trkpt>
      <trkpt lat="49.37697" lon="1.131">
        <ele>119.667938</ele>
        <time>2017-05-14T09:16:38Z</time>
      </trkpt>
      <trkpt lat="49.37729" lon="1.13094">
        <ele>120.512451</ele>
        <time>2017-05-14T09:16:50Z</time>
      </trkpt>
      <trkpt lat="49.37773" lon="1.13107">
        <ele>120.773476</ele>
        <time>2017-05-14T09:17:02Z</time>
      </trkpt>
      <trkpt lat="49.37806" lon="1.13138">
        <ele>121.555473</ele>
        <time>2017-05-14T09:17:14Z</time>
      </trkpt>
      <trkpt lat="49.37843" lon="1.13148">
        <ele>121.28524</ele>
        <time>2017-05-14T09:17:26Z</time>
      </trkpt>
      <trkpt lat="49.37868" lon="1.13171">
        <ele>119.671738</ele>
        <time>2017-05-14T09:17:38Z</time>
      </trkpt>
      <trkpt lat="49.37911" lon="1.13181">
        <ele>112.060974</ele>
        <time>2017-05-14T09:17:50Z</time>
      </trkpt>
      <trkpt lat="49.37975" lon="1.13211">
        <ele>114.232071</ele>
        <time>2017-05-14T09:18:02Z</time>
      </trkpt>
      <trkpt lat="49.3799" lon="1.13214">
        <ele>117.905228</ele>
        <time>2017-05-14T09:18:14Z</time>
      </trkpt>
      <trkpt lat="49.3801" lon="1.13224">
        <ele>120.823044</ele>
        <time>2017-05-14T09:18:26Z</time>
      </trkpt>
      <trkpt lat="49.38023" lon="1.13223">
        <ele>131</ele>
        <time>2017-05-14T09:18:38Z</time>
      </trkpt>
      <trkpt lat="49.38035" lon="1.13217">
        <ele>130.1</ele>
        <time>2017-05-14T09:18:50Z</time>
      </trkpt>
      <trkpt lat="49.38034" lon="1.13162">
        <ele>123.1</ele>
        <time>2017-05-14T09:19:02Z</time>
      </trkpt>
      <trkpt lat="49.3805" lon="1.13099">
        <ele>118.324974</ele>
        <time>2017-05-14T09:19:14Z</time>
      </trkpt>
      <trkpt lat="49.38063" lon="1.13078">
        <ele>114</ele>
        <time>2017-05-14T09:19:26Z</time>
      </trkpt>
      <trkpt lat="49.38071" lon="1.13049">
        <ele>112.912796</ele>
        <time>2017-05-14T09:19:38Z</time>
      </trkpt>
      <trkpt lat="49.38054" lon="1.12995">
        <ele>104.1</ele>
        <time>2017-05-14T09:19:50Z</time>
      </trkpt>
      <trkpt lat="49.38053" lon="1.12917">
        <ele>100.749687</ele>
        <time>2017-05-14T09:20:02Z</time>
      </trkpt>
      <trkpt lat="49.38064" lon="1.12899">
        <ele>96</ele>
        <time>2017-05-14T09:20:14Z</time>
      </trkpt>
      <trkpt lat="49.38081" lon="1.12887">
        <ele>96.3</ele>
        <time>2017-05-14T09:20:26Z</time>
      </trkpt>
      <trkpt lat="49.38133" lon="1.12857">
        <ele>96.3</ele>
        <time>2017-05-14T09:20:38Z</time>
      </trkpt>
      <trkpt lat="49.38153" lon="1.12846">
        <ele>95</ele>
        <time>2017-05-14T09:20:50Z</time>
      </trkpt>
      <trkpt lat="49.38163" lon="1.12816">
        <ele>90</ele>
        <time>2017-05-14T09:21:02Z</time>
      </trkpt>
      <trkpt lat="49.38174" lon="1.12803">
        <ele>88.005676</ele>
        <time>2017-05-14T09:21:14Z</time>
      </trkpt>
      <trkpt lat="49.38211" lon="1.12784">
        <ele>85.688889</ele>
        <time>2017-05-14T09:21:26Z</time>
      </trkpt>
      <trkpt lat="49.38228" lon="1.12783">
        <ele>82</ele>
        <time>2017-05-14T09:21:38Z</time>
      </trkpt>
      <trkpt lat="49.38236" lon="1.12826">
        <ele>81.4</ele>
        <time>2017-05-14T09:21:50Z</time>
      </trkpt>
      <trkpt lat="49.38225" lon="1.12897">
        <ele>82.2</ele>
        <time>2017-05-14T09:22:02Z</time>
      </trkpt>
      <trkpt lat="49.38206" lon="1.1291">
        <ele>85.2</ele>
        <time>2017-05-14T09:22:14Z</time>
      </trkpt>
      <trkpt lat="49.382" lon="1.1293">
        <ele>86</ele>
        <time>2017-05-14T09:22:26Z</time>
      </trkpt>
      <trkpt lat="49.38208" lon="1.12955">
        <ele>84.5</ele>
        <time>2017-05-14T09:22:38Z</time>
      </trkpt>
      <trkpt lat="49.38199" lon="1.13024">
        <ele>88.9</ele>
        <time>2017-05-14T09:22:50Z</time>
      </trkpt>
      <trkpt lat="49.38193" lon="1.13061">
        <ele>90.7</ele>
        <time>2017-05-14T09:23:02Z</time>
      </trkpt>
      <trkpt lat="49.38195" lon="1.13093">
        <ele>97</ele>
        <time>2017-05-14T09:23:14Z</time>
      </trkpt>
      <trkpt lat="49.38202" lon="1.13106">
        <ele>97</ele>
        <time>2017-05-14T09:23:26Z</time>
      </trkpt>
      <trkpt lat="49.38216" lon="1.13115">
        <ele>97</ele>
        <time>2017-05-14T09:23:38Z</time>
      </trkpt>
      <trkpt lat="49.3824" lon="1.13114">
        <ele>95</ele>
        <time>2017-05-14T09:23:50Z</time>
      </trkpt>
      <trkpt lat="49.38242" lon="1.13078">
        <ele>70.199005</ele>
        <time>2017-05-14T09:24:02Z</time>
      </trkpt>
      <trkpt lat="49.38248" lon="1.13">
        <ele>62.948055</ele>
        <time>2017-05-14T09:24:14Z</time>
      </trkpt>
      <trkpt lat="49.38281" lon="1.12943">
        <ele>73</ele>
        <time>2017-05-14T09:24:26Z</time>
      </trkpt>
      <trkpt lat="49.38336" lon="1.12869">
        <ele>44.501659</ele>
        <time>2017-05-14T09:24:38Z</time>
      </trkpt>
      <trkpt lat="49.38403" lon="1.12794">
        <ele>34.669144</ele>
        <time>2017-05-14T09:24:50Z</time>
      </trkpt>
      <trkpt lat="49.38453" lon="1.12733">
        <ele>24.445326</ele>
        <time>2017-05-14T09:25:02Z</time>
      </trkpt>
      <trkpt lat="49.38487" lon="1.12643">
        <ele>27.4</ele>
        <time>2017-05-14T09:25:20Z</time>
      </trkpt>
      <trkpt lat="49.38499" lon="1.12576">
        <ele>1.111434</ele>
        <time>2017-05-14T09:25:32Z</time>
      </trkpt>
      <trkpt lat="49.38522" lon="1.12565">
        <ele>0.530892</ele>
        <time>2017-05-14T09:25:49Z</time>
      </trkpt>
      <trkpt lat="49.38556" lon="1.12561">
        <ele>0.837631</ele>
        <time>2017-05-14T09:26:01Z</time>
      </trkpt>
      <trkpt lat="49.38594" lon="1.12552">
        <ele>1.70981</ele>
        <time>2017-05-14T09:26:13Z</time>
      </trkpt>
      <trkpt lat="49.38635" lon="1.12549">
        <ele>2.764404</ele>
        <time>2017-05-14T09:26:25Z</time>
      </trkpt>
      <trkpt lat="49.3868" lon="1.12559">
        <ele>3.902683</ele>
        <time>2017-05-14T09:26:37Z</time>
      </trkpt>
      <trkpt lat="49.38717" lon="1.12566">
        <ele>4.712085</ele>
        <time>2017-05-14T09:26:49Z</time>
      </trkpt>
      <trkpt lat="49.38759" lon="1.12579">
        <ele>5.141272</ele>
        <time>2017-05-14T09:27:01Z</time>
      </trkpt>
      <trkpt lat="49.38804" lon="1.12586">
        <ele>4.650707</ele>
        <time>2017-05-14T09:27:18Z</time>
      </trkpt>
      <trkpt lat="49.38862" lon="1.12583">
        <ele>13.8</ele>
        <time>2017-05-14T09:27:30Z</time>
      </trkpt>
      <trkpt lat="49.38863" lon="1.12535">
        <ele>12.1</ele>
        <time>2017-05-14T09:27:42Z</time>
      </trkpt>
      <trkpt lat="49.38867" lon="1.12421">
        <ele>4</ele>
        <time>2017-05-14T09:27:58Z</time>
      </trkpt>
      <trkpt lat="49.38917" lon="1.12426">
        <ele>3</ele>
        <time>2017-05-14T09:28:10Z</time>
      </trkpt>
      <trkpt lat="49.38961" lon="1.12427">
        <ele>4</ele>
        <time>2017-05-14T09:28:22Z</time>
      </trkpt>
      <trkpt lat="49.38987" lon="1.12473">
        <ele>6</ele>
        <time>2017-05-14T09:28:34Z</time>
      </trkpt>
      <trkpt lat="49.3904" lon="1.12475">
        <ele>8</ele>
        <time>2017-05-14T09:28:52Z</time>
      </trkpt>
      <trkpt lat="49.39079" lon="1.12416">
        <ele>6</ele>
        <time>2017-05-14T09:29:04Z</time>
      </trkpt>
      <trkpt lat="49.39134" lon="1.12384">
        <ele>4</ele>
        <time>2017-05-14T09:29:16Z</time>
      </trkpt>
      <trkpt lat="49.39191" lon="1.12358">
        <ele>6</ele>
        <time>2017-05-14T09:29:28Z</time>
      </trkpt>
      <trkpt lat="49.3925" lon="1.12337">
        <ele>9</ele>
        <time>2017-05-14T09:29:42Z</time>
      </trkpt>
      <trkpt lat="49.39309" lon="1.12316">
        <ele>6</ele>
        <time>2017-05-14T09:29:54Z</time>
      </trkpt>
      <trkpt lat="49.3937" lon="1.12296">
        <ele>5</ele>
        <time>2017-05-14T09:30:06Z</time>
      </trkpt>
      <trkpt lat="49.39432" lon="1.12279">
        <ele>4</ele>
        <time>2017-05-14T09:30:18Z</time>
      </trkpt>
      <trkpt lat="49.39495" lon="1.12262">
        <ele>3</ele>
        <time>2017-05-14T09:30:30Z</time>
      </trkpt>
      <trkpt lat="49.39558" lon="1.12255">
        <ele>3</ele>
        <time>2017-05-14T09:30:44Z</time>
      </trkpt>
      <trkpt lat="49.39623" lon="1.12255">
        <ele>4</ele>
        <time>2017-05-14T09:30:58Z</time>
      </trkpt>
      <trkpt lat="49.39684" lon="1.12254">
        <ele>6</ele>
        <time>2017-05-14T09:31:10Z</time>
      </trkpt>
      <trkpt lat="49.39758" lon="1.12243">
        <ele>6</ele>
        <time>2017-05-14T09:31:22Z</time>
      </trkpt>
      <trkpt lat="49.3982" lon="1.12249">
        <ele>7</ele>
        <time>2017-05-14T09:31:34Z</time>
      </trkpt>
      <trkpt lat="49.39874" lon="1.1224">
        <ele>5</ele>
        <time>2017-05-14T09:31:46Z</time>
      </trkpt>
      <trkpt lat="49.39933" lon="1.12234">
        <ele>4</ele>
        <time>2017-05-14T09:31:58Z</time>
      </trkpt>
      <trkpt lat="49.39994" lon="1.12231">
        <ele>3</ele>
        <time>2017-05-14T09:32:10Z</time>
      </trkpt>
      <trkpt lat="49.40052" lon="1.12234">
        <ele>3</ele>
        <time>2017-05-14T09:32:22Z</time>
      </trkpt>
      <trkpt lat="49.40112" lon="1.12228">
        <ele>3</ele>
        <time>2017-05-14T09:32:34Z</time>
      </trkpt>
      <trkpt lat="49.40176" lon="1.12222">
        <ele>4</ele>
        <time>2017-05-14T09:32:46Z</time>
      </trkpt>
      <trkpt lat="49.40237" lon="1.12217">
        <ele>4</ele>
        <time>2017-05-14T09:32:58Z</time>
      </trkpt>
      <trkpt lat="49.40297" lon="1.12211">
        <ele>4</ele>
        <time>2017-05-14T09:33:10Z</time>
      </trkpt>
      <trkpt lat="49.40356" lon="1.12199">
        <ele>4</ele>
        <time>2017-05-14T09:33:22Z</time>
      </trkpt>
      <trkpt lat="49.40415" lon="1.12189">
        <ele>4</ele>
        <time>2017-05-14T09:33:34Z</time>
      </trkpt>
      <trkpt lat="49.40477" lon="1.12177">
        <ele>9</ele>
        <time>2017-05-14T09:33:46Z</time>
      </trkpt>
      <trkpt lat="49.40535" lon="1.12166">
        <ele>8</ele>
        <time>2017-05-14T09:33:58Z</time>
      </trkpt>
      <trkpt lat="49.40591" lon="1.12153">
        <ele>6</ele>
        <time>2017-05-14T09:34:10Z</time>
      </trkpt>
      <trkpt lat="49.40645" lon="1.12141">
        <ele>5</ele>
        <time>2017-05-14T09:34:22Z</time>
      </trkpt>
      <trkpt lat="49.40699" lon="1.12128">
        <ele>4</ele>
        <time>2017-05-14T09:34:34Z</time>
      </trkpt>
      <trkpt lat="49.40753" lon="1.12113">
        <ele>4</ele>
        <time>2017-05-14T09:34:46Z</time>
      </trkpt>
      <trkpt lat="49.40805" lon="1.12102">
        <ele>4</ele>
        <time>2017-05-14T09:34:58Z</time>
      </trkpt>
      <trkpt lat="49.40856" lon="1.12091">
        <ele>5</ele>
        <time>2017-05-14T09:35:10Z</time>
      </trkpt>
      <trkpt lat="49.40905" lon="1.12074">
        <ele>4</ele>
        <time>2017-05-14T09:35:22Z</time>
      </trkpt>
      <trkpt lat="49.40943" lon="1.1206">
        <ele>4</ele>
        <time>2017-05-14T09:35:34Z</time>
      </trkpt>
      <trkpt lat="49.40984" lon="1.1204">
        <ele>4</ele>
        <time>2017-05-14T09:35:46Z</time>
      </trkpt>
      <trkpt lat="49.41029" lon="1.12024">
        <ele>5</ele>
        <time>2017-05-14T09:35:58Z</time>
      </trkpt>
      <trkpt lat="49.4107" lon="1.12009">
        <ele>6</ele>
        <time>2017-05-14T09:36:10Z</time>
      </trkpt>
      <trkpt lat="49.411" lon="1.12014">
        <ele>8</ele>
        <time>2017-05-14T09:36:22Z</time>
      </trkpt>
      <trkpt lat="49.4114" lon="1.11996">
        <ele>6</ele>
        <time>2017-05-14T09:36:34Z</time>
      </trkpt>
      <trkpt lat="49.41187" lon="1.11974">
        <ele>6</ele>
        <time>2017-05-14T09:36:46Z</time>
      </trkpt>
      <trkpt lat="49.41235" lon="1.1196">
        <ele>6</ele>
        <time>2017-05-14T09:36:58Z</time>
      </trkpt>
      <trkpt lat="49.41276" lon="1.11941">
        <ele>7</ele>
        <time>2017-05-14T09:37:10Z</time>
      </trkpt>
      <trkpt lat="49.41308" lon="1.11926">
        <ele>7</ele>
        <time>2017-05-14T09:37:22Z</time>
      </trkpt>
      <trkpt lat="49.41327" lon="1.11897">
        <ele>5</ele>
        <time>2017-05-14T09:37:34Z</time>
      </trkpt>
      <trkpt lat="49.4136" lon="1.11877">
        <ele>5</ele>
        <time>2017-05-14T09:37:46Z</time>
      </trkpt>
      <trkpt lat="49.41401" lon="1.11857">
        <ele>4</ele>
        <time>2017-05-14T09:37:58Z</time>
      </trkpt>
      <trkpt lat="49.41444" lon="1.11834">
        <ele>4</ele>
        <time>2017-05-14T09:38:10Z</time>
      </trkpt>
      <trkpt lat="49.4149" lon="1.11808">
        <ele>4</ele>
        <time>2017-05-14T09:38:22Z</time>
      </trkpt>
      <trkpt lat="49.41533" lon="1.11785">
        <ele>5</ele>
        <time>2017-05-14T09:38:34Z</time>
      </trkpt>
      <trkpt lat="49.41576" lon="1.11762">
        <ele>4</ele>
        <time>2017-05-14T09:38:46Z</time>
      </trkpt>
      <trkpt lat="49.41616" lon="1.1174">
        <ele>4</ele>
        <time>2017-05-14T09:38:58Z</time>
      </trkpt>
      <trkpt lat="49.41657" lon="1.11718">
        <ele>4</ele>
        <time>2017-05-14T09:39:10Z</time>
      </trkpt>
      <trkpt lat="49.41699" lon="1.11693">
        <ele>6</ele>
        <time>2017-05-14T09:39:22Z</time>
      </trkpt>
      <trkpt lat="49.41741" lon="1.11671">
        <ele>7</ele>
        <time>2017-05-14T09:39:34Z</time>
      </trkpt>
      <trkpt lat="49.41784" lon="1.11646">
        <ele>5</ele>
        <time>2017-05-14T09:39:48Z</time>
      </trkpt>
      <trkpt lat="49.41826" lon="1.11622">
        <ele>4</ele>
        <time>2017-05-14T09:40:00Z</time>
      </trkpt>
      <trkpt lat="49.41869" lon="1.11598">
        <ele>6</ele>
        <time>2017-05-14T09:40:12Z</time>
      </trkpt>
      <trkpt lat="49.41912" lon="1.11574">
        <ele>6</ele>
        <time>2017-05-14T09:40:24Z</time>
      </trkpt>
      <trkpt lat="49.41956" lon="1.1155">
        <ele>7</ele>
        <time>2017-05-14T09:40:36Z</time>
      </trkpt>
      <trkpt lat="49.42" lon="1.11525">
        <ele>9</ele>
        <time>2017-05-14T09:40:50Z</time>
      </trkpt>
      <trkpt lat="49.42044" lon="1.11501">
        <ele>9</ele>
        <time>2017-05-14T09:41:02Z</time>
      </trkpt>
      <trkpt lat="49.42088" lon="1.11474">
        <ele>5</ele>
        <time>2017-05-14T09:42:20Z</time>
      </trkpt>
      <trkpt lat="49.42134" lon="1.11445">
        <ele>4</ele>
        <time>2017-05-14T09:44:47Z</time>
      </trkpt>
      <trkpt lat="49.4218" lon="1.11415">
        <ele>3</ele>
        <time>2017-05-14T09:44:59Z</time>
      </trkpt>
      <trkpt lat="49.42223" lon="1.11385">
        <ele>4</ele>
        <time>2017-05-14T09:45:11Z</time>
      </trkpt>
      <trkpt lat="49.4227" lon="1.1138">
        <ele>7</ele>
        <time>2017-05-14T09:45:23Z</time>
      </trkpt>
      <trkpt lat="49.42293" lon="1.11435">
        <ele>11</ele>
        <time>2017-05-14T09:45:35Z</time>
      </trkpt>
      <trkpt lat="49.42312" lon="1.11481">
        <ele>12</ele>
        <time>2017-05-14T09:45:47Z</time>
      </trkpt>
      <trkpt lat="49.42305" lon="1.11506">
        <ele>18</ele>
        <time>2017-05-14T09:45:59Z</time>
      </trkpt>
      <trkpt lat="49.42292" lon="1.11519">
        <ele>18</ele>
        <time>2017-05-14T09:46:11Z</time>
      </trkpt>
      <trkpt lat="49.42249" lon="1.11545">
        <ele>13</ele>
        <time>2017-05-14T09:46:23Z</time>
      </trkpt>
      <trkpt lat="49.42203" lon="1.11569">
        <ele>12</ele>
        <time>2017-05-14T09:46:35Z</time>
      </trkpt>
      <trkpt lat="49.42179" lon="1.11585">
        <ele>0.615708</ele>
        <time>2017-05-14T09:46:47Z</time>
      </trkpt>
      <trkpt lat="49.42157" lon="1.11607">
        <ele>1.7161</ele>
        <time>2017-05-14T09:46:59Z</time>
      </trkpt>
      <trkpt lat="49.42149" lon="1.11628">
        <ele>3.712441</ele>
        <time>2017-05-14T09:47:11Z</time>
      </trkpt>
      <trkpt lat="49.42153" lon="1.11653">
        <ele>6.530569</ele>
        <time>2017-05-14T09:47:23Z</time>
      </trkpt>
      <trkpt lat="49.42157" lon="1.11678">
        <ele>10.959801</ele>
        <time>2017-05-14T09:47:35Z</time>
      </trkpt>
      <trkpt lat="49.4216" lon="1.11694">
        <ele>13.333702</ele>
        <time>2017-05-14T09:47:47Z</time>
      </trkpt>
      <trkpt lat="49.42162" lon="1.11704">
        <ele>15.887331</ele>
        <time>2017-05-14T09:47:59Z</time>
      </trkpt>
      <trkpt lat="49.42173" lon="1.11699">
        <ele>18.756643</ele>
        <time>2017-05-14T09:48:11Z</time>
      </trkpt>
      <trkpt lat="49.42189" lon="1.11692">
        <ele>20.067537</ele>
        <time>2017-05-14T09:48:23Z</time>
      </trkpt>
      <trkpt lat="49.42207" lon="1.11687">
        <ele>21.01536</ele>
        <time>2017-05-14T09:48:35Z</time>
      </trkpt>
      <trkpt lat="49.42225" lon="1.11683">
        <ele>22.174801</ele>
        <time>2017-05-14T09:48:47Z</time>
      </trkpt>
      <trkpt lat="49.42231" lon="1.11706">
        <ele>24.169546</ele>
        <time>2017-05-14T09:48:59Z</time>
      </trkpt>
      <trkpt lat="49.42218" lon="1.11719">
        <ele>26.405096</ele>
        <time>2017-05-14T09:49:11Z</time>
      </trkpt>
      <trkpt lat="49.42208" lon="1.11728">
        <ele>28.481186</ele>
        <time>2017-05-14T09:49:23Z</time>
      </trkpt>
      <trkpt lat="49.42195" lon="1.11741">
        <ele>30.096325</ele>
        <time>2017-05-14T09:49:35Z</time>
      </trkpt>
      <trkpt lat="49.42184" lon="1.11752">
        <ele>32.442154</ele>
        <time>2017-05-14T09:49:47Z</time>
      </trkpt>
      <trkpt lat="49.42176" lon="1.11764">
        <ele>34.2481</ele>
        <time>2017-05-14T09:49:59Z</time>
      </trkpt>
      <trkpt lat="49.42164" lon="1.11776">
        <ele>35.603432</ele>
        <time>2017-05-14T09:50:11Z</time>
      </trkpt>
      <trkpt lat="49.42151" lon="1.11787">
        <ele>36.543274</ele>
        <time>2017-05-14T09:50:23Z</time>
      </trkpt>
      <trkpt lat="49.42141" lon="1.11796">
        <ele>37.826778</ele>
        <time>2017-05-14T09:50:35Z</time>
      </trkpt>
      <trkpt lat="49.4213" lon="1.11793">
        <ele>40.305725</ele>
        <time>2017-05-14T09:50:47Z</time>
      </trkpt>
      <trkpt lat="49.42098" lon="1.11788">
        <ele>41.247131</ele>
        <time>2017-05-14T09:50:59Z</time>
      </trkpt>
      <trkpt lat="49.42073" lon="1.11797">
        <ele>41.829052</ele>
        <time>2017-05-14T09:51:11Z</time>
      </trkpt>
      <trkpt lat="49.42056" lon="1.11805">
        <ele>43.273869</ele>
        <time>2017-05-14T09:51:23Z</time>
      </trkpt>
      <trkpt lat="49.4204" lon="1.11818">
        <ele>44.675137</ele>
        <time>2017-05-14T09:51:35Z</time>
      </trkpt>
      <trkpt lat="49.42027" lon="1.11831">
        <ele>45.608025</ele>
        <time>2017-05-14T09:51:47Z</time>
      </trkpt>
      <trkpt lat="49.42012" lon="1.11844">
        <ele>46.774719</ele>
        <time>2017-05-14T09:51:59Z</time>
      </trkpt>
      <trkpt lat="49.41996" lon="1.11859">
        <ele>48.144501</ele>
        <time>2017-05-14T09:52:11Z</time>
      </trkpt>
      <trkpt lat="49.41981" lon="1.11875">
        <ele>49.252319</ele>
        <time>2017-05-14T09:52:23Z</time>
      </trkpt>
      <trkpt lat="49.41967" lon="1.11892">
        <ele>49.973625</ele>
        <time>2017-05-14T09:52:35Z</time>
      </trkpt>
      <trkpt lat="49.41957" lon="1.11915">
        <ele>50.517384</ele>
        <time>2017-05-14T09:52:47Z</time>
      </trkpt>
      <trkpt lat="49.41955" lon="1.11942">
        <ele>51.565468</ele>
        <time>2017-05-14T09:53:23Z</time>
      </trkpt>
      <trkpt lat="49.41954" lon="1.11972">
        <ele>52.862343</ele>
        <time>2017-05-14T09:53:35Z</time>
      </trkpt>
      <trkpt lat="49.41954" lon="1.12001">
        <ele>54.309586</ele>
        <time>2017-05-14T09:53:47Z</time>
      </trkpt>
      <trkpt lat="49.41948" lon="1.12028">
        <ele>55.834232</ele>
        <time>2017-05-14T09:53:59Z</time>
      </trkpt>
      <trkpt lat="49.4194" lon="1.12055">
        <ele>57.13361</ele>
        <time>2017-05-14T09:54:11Z</time>
      </trkpt>
      <trkpt lat="49.41921" lon="1.12058">
        <ele>58.67791</ele>
        <time>2017-05-14T09:54:23Z</time>
      </trkpt>
      <trkpt lat="49.41903" lon="1.12054">
        <ele>60.018494</ele>
        <time>2017-05-14T09:54:35Z</time>
      </trkpt>
      <trkpt lat="49.41885" lon="1.12049">
        <ele>61.594479</ele>
        <time>2017-05-14T09:54:47Z</time>
      </trkpt>
      <trkpt lat="49.41871" lon="1.12031">
        <ele>62.87849</ele>
        <time>2017-05-14T09:54:59Z</time>
      </trkpt>
      <trkpt lat="49.41858" lon="1.12017">
        <ele>64.263702</ele>
        <time>2017-05-14T09:55:11Z</time>
      </trkpt>
      <trkpt lat="49.41845" lon="1.12001">
        <ele>65.714394</ele>
        <time>2017-05-14T09:55:23Z</time>
      </trkpt>
      <trkpt lat="49.41826" lon="1.12001">
        <ele>66.87458</ele>
        <time>2017-05-14T09:55:35Z</time>
      </trkpt>
      <trkpt lat="49.41806" lon="1.1201">
        <ele>67.910133</ele>
        <time>2017-05-14T09:55:47Z</time>
      </trkpt>
      <trkpt lat="49.41789" lon="1.1202">
        <ele>68.989021</ele>
        <time>2017-05-14T09:55:59Z</time>
      </trkpt>
      <trkpt lat="49.41769" lon="1.12029">
        <ele>70.720703</ele>
        <time>2017-05-14T09:56:11Z</time>
      </trkpt>
      <trkpt lat="49.41752" lon="1.12039">
        <ele>71.854553</ele>
        <time>2017-05-14T09:56:23Z</time>
      </trkpt>
      <trkpt lat="49.41734" lon="1.12052">
        <ele>73.237434</ele>
        <time>2017-05-14T09:56:35Z</time>
      </trkpt>
      <trkpt lat="49.41721" lon="1.12068">
        <ele>74.935127</ele>
        <time>2017-05-14T09:56:47Z</time>
      </trkpt>
      <trkpt lat="49.41702" lon="1.12085">
        <ele>76.478683</ele>
        <time>2017-05-14T09:56:59Z</time>
      </trkpt>
      <trkpt lat="49.41685" lon="1.12101">
        <ele>77.274529</ele>
        <time>2017-05-14T09:58:11Z</time>
      </trkpt>
      <trkpt lat="49.41673" lon="1.1212">
        <ele>78.29287</ele>
        <time>2017-05-14T09:58:35Z</time>
      </trkpt>
      <trkpt lat="49.41661" lon="1.12143">
        <ele>79.990456</ele>
        <time>2017-05-14T09:58:47Z</time>
      </trkpt>
      <trkpt lat="49.41649" lon="1.12167">
        <ele>81.898788</ele>
        <time>2017-05-14T09:58:59Z</time>
      </trkpt>
      <trkpt lat="49.41638" lon="1.12191">
        <ele>83.135918</ele>
        <time>2017-05-14T09:59:11Z</time>
      </trkpt>
      <trkpt lat="49.41628" lon="1.12215">
        <ele>84.538116</ele>
        <time>2017-05-14T09:59:23Z</time>
      </trkpt>
      <trkpt lat="49.41626" lon="1.12245">
        <ele>86.229248</ele>
        <time>2017-05-14T09:59:35Z</time>
      </trkpt>
      <trkpt lat="49.41625" lon="1.1227">
        <ele>87.886642</ele>
        <time>2017-05-14T09:59:47Z</time>
      </trkpt>
      <trkpt lat="49.41626" lon="1.12299">
        <ele>89.406891</ele>
        <time>2017-05-14T09:59:59Z</time>
      </trkpt>
      <trkpt lat="49.41626" lon="1.12328">
        <ele>90.617371</ele>
        <time>2017-05-14T10:00:11Z</time>
      </trkpt>
      <trkpt lat="49.41626" lon="1.12354">
        <ele>92.160782</ele>
        <time>2017-05-14T10:00:23Z</time>
      </trkpt>
      <trkpt lat="49.41628" lon="1.12381">
        <ele>93.560493</ele>
        <time>2017-05-14T10:00:35Z</time>
      </trkpt>
      <trkpt lat="49.41627" lon="1.12409">
        <ele>95.084091</ele>
        <time>2017-05-14T10:00:47Z</time>
      </trkpt>
      <trkpt lat="49.41629" lon="1.12435">
        <ele>96.37339</ele>
        <time>2017-05-14T10:00:59Z</time>
      </trkpt>
      <trkpt lat="49.4163" lon="1.12464">
        <ele>97.444717</ele>
        <time>2017-05-14T10:01:11Z</time>
      </trkpt>
      <trkpt lat="49.41632" lon="1.12492">
        <ele>98.588699</ele>
        <time>2017-05-14T10:01:23Z</time>
      </trkpt>
      <trkpt lat="49.41633" lon="1.12518">
        <ele>100.092377</ele>
        <time>2017-05-14T10:01:35Z</time>
      </trkpt>
      <trkpt lat="49.41635" lon="1.12548">
        <ele>101.424171</ele>
        <time>2017-05-14T10:01:47Z</time>
      </trkpt>
      <trkpt lat="49.4164" lon="1.12576">
        <ele>102.345665</ele>
        <time>2017-05-14T10:01:59Z</time>
      </trkpt>
      <trkpt lat="49.41649" lon="1.12599">
        <ele>103.534882</ele>
        <time>2017-05-14T10:06:16Z</time>
      </trkpt>
      <trkpt lat="49.41664" lon="1.12613">
        <ele>105.302658</ele>
        <time>2017-05-14T10:06:28Z</time>
      </trkpt>
      <trkpt lat="49.41675" lon="1.12628">
        <ele>107.032883</ele>
        <time>2017-05-14T10:06:40Z</time>
      </trkpt>
      <trkpt lat="49.41702" lon="1.1266">
        <ele>118.549858</ele>
        <time>2017-05-14T10:06:52Z</time>
      </trkpt>
      <trkpt lat="49.41704" lon="1.12676">
        <ele>132</ele>
        <time>2017-05-14T10:07:04Z</time>
      </trkpt>
      <trkpt lat="49.41709" lon="1.12691">
        <ele>133.6</ele>
        <time>2017-05-14T10:07:16Z</time>
      </trkpt>
      <trkpt lat="49.41705" lon="1.12718">
        <ele>133.4</ele>
        <time>2017-05-14T10:07:28Z</time>
      </trkpt>
      <trkpt lat="49.41696" lon="1.1275">
        <ele>123.176872</ele>
        <time>2017-05-14T10:07:40Z</time>
      </trkpt>
      <trkpt lat="49.41683" lon="1.12777">
        <ele>124.584206</ele>
        <time>2017-05-14T10:07:52Z</time>
      </trkpt>
      <trkpt lat="49.41673" lon="1.12809">
        <ele>125.858391</ele>
        <time>2017-05-14T10:08:04Z</time>
      </trkpt>
      <trkpt lat="49.41668" lon="1.12839">
        <ele>126.798553</ele>
        <time>2017-05-14T10:08:16Z</time>
      </trkpt>
      <trkpt lat="49.41663" lon="1.12881">
        <ele>127.771881</ele>
        <time>2017-05-14T10:08:30Z</time>
      </trkpt>
      <trkpt lat="49.41659" lon="1.12922">
        <ele>128.698593</ele>
        <time>2017-05-14T10:08:42Z</time>
      </trkpt>
      <trkpt lat="49.41658" lon="1.12964">
        <ele>129.591568</ele>
        <time>2017-05-14T10:08:54Z</time>
      </trkpt>
      <trkpt lat="49.4166" lon="1.13006">
        <ele>130.298889</ele>
        <time>2017-05-14T10:09:06Z</time>
      </trkpt>
      <trkpt lat="49.41665" lon="1.13048">
        <ele>131.419983</ele>
        <time>2017-05-14T10:09:18Z</time>
      </trkpt>
      <trkpt lat="49.41669" lon="1.13092">
        <ele>132.594055</ele>
        <time>2017-05-14T10:09:30Z</time>
      </trkpt>
      <trkpt lat="49.41655" lon="1.13122">
        <ele>133.792023</ele>
        <time>2017-05-14T10:09:42Z</time>
      </trkpt>
      <trkpt lat="49.41628" lon="1.13147">
        <ele>134.797653</ele>
        <time>2017-05-14T10:09:54Z</time>
      </trkpt>
      <trkpt lat="49.41599" lon="1.1317">
        <ele>135.314621</ele>
        <time>2017-05-14T10:10:06Z</time>
      </trkpt>
      <trkpt lat="49.41567" lon="1.13188">
        <ele>135.474182</ele>
        <time>2017-05-14T10:10:18Z</time>
      </trkpt>
      <trkpt lat="49.41534" lon="1.13207">
        <ele>135.901978</ele>
        <time>2017-05-14T10:10:30Z</time>
      </trkpt>
      <trkpt lat="49.41502" lon="1.13222">
        <ele>136.601044</ele>
        <time>2017-05-14T10:10:42Z</time>
      </trkpt>
      <trkpt lat="49.4147" lon="1.13237">
        <ele>137.377869</ele>
        <time>2017-05-14T10:10:54Z</time>
      </trkpt>
      <trkpt lat="49.41437" lon="1.13256">
        <ele>138.143082</ele>
        <time>2017-05-14T10:11:06Z</time>
      </trkpt>
      <trkpt lat="49.41404" lon="1.13277">
        <ele>138.783829</ele>
        <time>2017-05-14T10:11:18Z</time>
      </trkpt>
      <trkpt lat="49.41371" lon="1.13294">
        <ele>139.338974</ele>
        <time>2017-05-14T10:11:56Z</time>
      </trkpt>
      <trkpt lat="49.41336" lon="1.13313">
        <ele>139.877289</ele>
        <time>2017-05-14T10:12:20Z</time>
      </trkpt>
      <trkpt lat="49.41301" lon="1.1333">
        <ele>139.991684</ele>
        <time>2017-05-14T10:12:32Z</time>
      </trkpt>
      <trkpt lat="49.41266" lon="1.13349">
        <ele>140.269577</ele>
        <time>2017-05-14T10:12:44Z</time>
      </trkpt>
      <trkpt lat="49.4123" lon="1.13368">
        <ele>140.744125</ele>
        <time>2017-05-14T10:12:56Z</time>
      </trkpt>
      <trkpt lat="49.41193" lon="1.13389">
        <ele>141.049011</ele>
        <time>2017-05-14T10:13:08Z</time>
      </trkpt>
      <trkpt lat="49.41158" lon="1.13417">
        <ele>141.474533</ele>
        <time>2017-05-14T10:13:20Z</time>
      </trkpt>
      <trkpt lat="49.41124" lon="1.13445">
        <ele>142.162659</ele>
        <time>2017-05-14T10:13:32Z</time>
      </trkpt>
      <trkpt lat="49.41092" lon="1.13474">
        <ele>142.463654</ele>
        <time>2017-05-14T10:13:44Z</time>
      </trkpt>
      <trkpt lat="49.41056" lon="1.13509">
        <ele>142.553268</ele>
        <time>2017-05-14T10:13:56Z</time>
      </trkpt>
      <trkpt lat="49.4102" lon="1.13542">
        <ele>143.23851</ele>
        <time>2017-05-14T10:14:08Z</time>
      </trkpt>
      <trkpt lat="49.40981" lon="1.13576">
        <ele>143.759323</ele>
        <time>2017-05-14T10:14:20Z</time>
      </trkpt>
      <trkpt lat="49.40934" lon="1.13612">
        <ele>143.53981</ele>
        <time>2017-05-14T10:14:32Z</time>
      </trkpt>
      <trkpt lat="49.40892" lon="1.13663">
        <ele>142.991776</ele>
        <time>2017-05-14T10:14:44Z</time>
      </trkpt>
      <trkpt lat="49.40852" lon="1.1372">
        <ele>142.398102</ele>
        <time>2017-05-14T10:14:56Z</time>
      </trkpt>
      <trkpt lat="49.40814" lon="1.1378">
        <ele>141.596222</ele>
        <time>2017-05-14T10:15:08Z</time>
      </trkpt>
      <trkpt lat="49.40778" lon="1.13837">
        <ele>140.670074</ele>
        <time>2017-05-14T10:15:20Z</time>
      </trkpt>
      <trkpt lat="49.40743" lon="1.13883">
        <ele>139.341644</ele>
        <time>2017-05-14T10:15:32Z</time>
      </trkpt>
      <trkpt lat="49.40709" lon="1.13935">
        <ele>138.042358</ele>
        <time>2017-05-14T10:15:44Z</time>
      </trkpt>
      <trkpt lat="49.4068" lon="1.13988">
        <ele>137.728485</ele>
        <time>2017-05-14T10:15:56Z</time>
      </trkpt>
      <trkpt lat="49.40652" lon="1.14039">
        <ele>138.635864</ele>
        <time>2017-05-14T10:16:08Z</time>
      </trkpt>
      <trkpt lat="49.40618" lon="1.14086">
        <ele>138.898956</ele>
        <time>2017-05-14T10:16:20Z</time>
      </trkpt>
      <trkpt lat="49.40634" lon="1.14153">
        <ele>152.7</ele>
        <time>2017-05-14T10:16:32Z</time>
      </trkpt>
      <trkpt lat="49.40656" lon="1.14214">
        <ele>152.7</ele>
        <time>2017-05-14T10:16:44Z</time>
      </trkpt>
      <trkpt lat="49.4063" lon="1.14267">
        <ele>139.973755</ele>
        <time>2017-05-14T10:16:56Z</time>
      </trkpt>
      <trkpt lat="49.40596" lon="1.14321">
        <ele>140.623062</ele>
        <time>2017-05-14T10:17:08Z</time>
      </trkpt>
      <trkpt lat="49.40554" lon="1.14376">
        <ele>140.123306</ele>
        <time>2017-05-14T10:17:20Z</time>
      </trkpt>
      <trkpt lat="49.40501" lon="1.14416">
        <ele>138.663132</ele>
        <time>2017-05-14T10:17:32Z</time>
      </trkpt>
      <trkpt lat="49.40455" lon="1.14435">
        <ele>137.635773</ele>
        <time>2017-05-14T10:17:44Z</time>
      </trkpt>
      <trkpt lat="49.40417" lon="1.14457">
        <ele>138.538971</ele>
        <time>2017-05-14T10:17:56Z</time>
      </trkpt>
      <trkpt lat="49.40378" lon="1.14489">
        <ele>139.694107</ele>
        <time>2017-05-14T10:18:08Z</time>
      </trkpt>
      <trkpt lat="49.4034" lon="1.14521">
        <ele>140.396851</ele>
        <time>2017-05-14T10:18:20Z</time>
      </trkpt>
      <trkpt lat="49.40307" lon="1.1455">
        <ele>140.847916</ele>
        <time>2017-05-14T10:18:32Z</time>
      </trkpt>
      <trkpt lat="49.40276" lon="1.14575">
        <ele>140.891266</ele>
        <time>2017-05-14T10:18:44Z</time>
      </trkpt>
      <trkpt lat="49.40242" lon="1.14603">
        <ele>141.437988</ele>
        <time>2017-05-14T10:18:56Z</time>
      </trkpt>
      <trkpt lat="49.40198" lon="1.14643">
        <ele>141.643341</ele>
        <time>2017-05-14T10:19:08Z</time>
      </trkpt>
      <trkpt lat="49.40152" lon="1.14689">
        <ele>141.063324</ele>
        <time>2017-05-14T10:19:20Z</time>
      </trkpt>
      <trkpt lat="49.40105" lon="1.14746">
        <ele>140.395752</ele>
        <time>2017-05-14T10:19:32Z</time>
      </trkpt>
      <trkpt lat="49.40057" lon="1.14802">
        <ele>139.612808</ele>
        <time>2017-05-14T10:19:56Z</time>
      </trkpt>
      <trkpt lat="49.40025" lon="1.14853">
        <ele>139.213684</ele>
        <time>2017-05-14T10:20:08Z</time>
      </trkpt>
      <trkpt lat="49.39989" lon="1.14891">
        <ele>139.005127</ele>
        <time>2017-05-14T10:20:20Z</time>
      </trkpt>
      <trkpt lat="49.39951" lon="1.14936">
        <ele>138.73114</ele>
        <time>2017-05-14T10:20:32Z</time>
      </trkpt>
      <trkpt lat="49.39904" lon="1.14975">
        <ele>138.17807</ele>
        <time>2017-05-14T10:20:44Z</time>
      </trkpt>
      <trkpt lat="49.39882" lon="1.15018">
        <ele>147</ele>
        <time>2017-05-14T10:20:56Z</time>
      </trkpt>
      <trkpt lat="49.39849" lon="1.15061">
        <ele>146</ele>
        <time>2017-05-14T10:21:08Z</time>
      </trkpt>
      <trkpt lat="49.39795" lon="1.15118">
        <ele>147.6</ele>
        <time>2017-05-14T10:21:20Z</time>
      </trkpt>
      <trkpt lat="49.39808" lon="1.15145">
        <ele>135.942108</ele>
        <time>2017-05-14T10:21:32Z</time>
      </trkpt>
      <trkpt lat="49.39832" lon="1.15187">
        <ele>148.9</ele>
        <time>2017-05-14T10:21:44Z</time>
      </trkpt>
      <trkpt lat="49.39861" lon="1.15232">
        <ele>137.93988</ele>
        <time>2017-05-14T10:21:56Z</time>
      </trkpt>
      <trkpt lat="49.39887" lon="1.1527">
        <ele>138.820099</ele>
        <time>2017-05-14T10:22:08Z</time>
      </trkpt>
      <trkpt lat="49.39913" lon="1.15303">
        <ele>139.523453</ele>
        <time>2017-05-14T10:22:32Z</time>
      </trkpt>
      <trkpt lat="49.39941" lon="1.15333">
        <ele>140.451828</ele>
        <time>2017-05-14T10:22:44Z</time>
      </trkpt>
      <trkpt lat="49.39968" lon="1.15358">
        <ele>141.373566</ele>
        <time>2017-05-14T10:22:56Z</time>
      </trkpt>
      <trkpt lat="49.39988" lon="1.15387">
        <ele>142.364197</ele>
        <time>2017-05-14T10:23:08Z</time>
      </trkpt>
      <trkpt lat="49.40009" lon="1.15425">
        <ele>143.536133</ele>
        <time>2017-05-14T10:23:20Z</time>
      </trkpt>
      <trkpt lat="49.40028" lon="1.15467">
        <ele>144.530426</ele>
        <time>2017-05-14T10:23:32Z</time>
      </trkpt>
      <trkpt lat="49.40047" lon="1.15507">
        <ele>145.671051</ele>
        <time>2017-05-14T10:23:44Z</time>
      </trkpt>
      <trkpt lat="49.40067" lon="1.15548">
        <ele>146.69902</ele>
        <time>2017-05-14T10:23:56Z</time>
      </trkpt>
      <trkpt lat="49.40086" lon="1.1559">
        <ele>147.382141</ele>
        <time>2017-05-14T10:24:08Z</time>
      </trkpt>
      <trkpt lat="49.40106" lon="1.15631">
        <ele>148.306198</ele>
        <time>2017-05-14T10:24:20Z</time>
      </trkpt>
      <trkpt lat="49.40127" lon="1.15673">
        <ele>148.842148</ele>
        <time>2017-05-14T10:24:32Z</time>
      </trkpt>
      <trkpt lat="49.40152" lon="1.15722">
        <ele>149.308716</ele>
        <time>2017-05-14T10:24:44Z</time>
      </trkpt>
      <trkpt lat="49.40179" lon="1.15768">
        <ele>149.260956</ele>
        <time>2017-05-14T10:24:56Z</time>
      </trkpt>
      <trkpt lat="49.40208" lon="1.15812">
        <ele>149.341827</ele>
        <time>2017-05-14T10:25:08Z</time>
      </trkpt>
      <trkpt lat="49.40246" lon="1.15837">
        <ele>149.178192</ele>
        <time>2017-05-14T10:25:20Z</time>
      </trkpt>
      <trkpt lat="49.40274" lon="1.15846">
        <ele>149.771729</ele>
        <time>2017-05-14T10:25:32Z</time>
      </trkpt>
      <trkpt lat="49.40282" lon="1.15843">
        <ele>148.615417</ele>
        <time>2017-05-14T10:25:44Z</time>
      </trkpt>
      <trkpt lat="49.40301" lon="1.15848">
        <ele>148.474915</ele>
        <time>2017-05-14T10:25:56Z</time>
      </trkpt>
      <trkpt lat="49.40353" lon="1.15855">
        <ele>147.958969</ele>
        <time>2017-05-14T10:26:08Z</time>
      </trkpt>
      <trkpt lat="49.40412" lon="1.15873">
        <ele>145.839874</ele>
        <time>2017-05-14T10:26:20Z</time>
      </trkpt>
      <trkpt lat="49.40466" lon="1.15896">
        <ele>142.654144</ele>
        <time>2017-05-14T10:26:32Z</time>
      </trkpt>
      <trkpt lat="49.40486" lon="1.15915">
        <ele>139.911179</ele>
        <time>2017-05-14T10:26:44Z</time>
      </trkpt>
      <trkpt lat="49.40487" lon="1.15922">
        <ele>139.269638</ele>
        <time>2017-05-14T10:26:56Z</time>
      </trkpt>
      <trkpt lat="49.40499" lon="1.15905">
        <ele>139.495773</ele>
        <time>2017-05-14T10:27:08Z</time>
      </trkpt>
      <trkpt lat="49.40522" lon="1.15887">
        <ele>140.830475</ele>
        <time>2017-05-14T10:27:20Z</time>
      </trkpt>
      <trkpt lat="49.40544" lon="1.15873">
        <ele>142.350922</ele>
        <time>2017-05-14T10:27:32Z</time>
      </trkpt>
      <trkpt lat="49.40567" lon="1.15859">
        <ele>143.050766</ele>
        <time>2017-05-14T10:28:08Z</time>
      </trkpt>
      <trkpt lat="49.40586" lon="1.15838">
        <ele>143.415268</ele>
        <time>2017-05-14T10:28:20Z</time>
      </trkpt>
      <trkpt lat="49.40598" lon="1.15807">
        <ele>144.004166</ele>
        <time>2017-05-14T10:28:32Z</time>
      </trkpt>
      <trkpt lat="49.40619" lon="1.15779">
        <ele>144.845444</ele>
        <time>2017-05-14T10:28:44Z</time>
      </trkpt>
      <trkpt lat="49.40641" lon="1.15769">
        <ele>145.569397</ele>
        <time>2017-05-14T10:28:56Z</time>
      </trkpt>
      <trkpt lat="49.40665" lon="1.15771">
        <ele>145.796204</ele>
        <time>2017-05-14T10:29:08Z</time>
      </trkpt>
      <trkpt lat="49.40689" lon="1.15789">
        <ele>146.224457</ele>
        <time>2017-05-14T10:29:32Z</time>
      </trkpt>
      <trkpt lat="49.4072" lon="1.15818">
        <ele>146.239212</ele>
        <time>2017-05-14T10:29:44Z</time>
      </trkpt>
      <trkpt lat="49.40764" lon="1.15841">
        <ele>145.774948</ele>
        <time>2017-05-14T10:29:56Z</time>
      </trkpt>
      <trkpt lat="49.40819" lon="1.1585">
        <ele>144.035919</ele>
        <time>2017-05-14T10:30:08Z</time>
      </trkpt>
      <trkpt lat="49.40861" lon="1.15856">
        <ele>143.804962</ele>
        <time>2017-05-14T10:30:20Z</time>
      </trkpt>
      <trkpt lat="49.409" lon="1.15856">
        <ele>144.202957</ele>
        <time>2017-05-14T10:30:32Z</time>
      </trkpt>
      <trkpt lat="49.40947" lon="1.15829">
        <ele>141.403671</ele>
        <time>2017-05-14T10:30:44Z</time>
      </trkpt>
      <trkpt lat="49.40993" lon="1.15789">
        <ele>138.295715</ele>
        <time>2017-05-14T10:30:56Z</time>
      </trkpt>
      <trkpt lat="49.41028" lon="1.15711">
        <ele>136.073868</ele>
        <time>2017-05-14T10:31:08Z</time>
      </trkpt>
      <trkpt lat="49.41041" lon="1.15666">
        <ele>147</ele>
        <time>2017-05-14T10:31:20Z</time>
      </trkpt>
      <trkpt lat="49.41056" lon="1.15641">
        <ele>133.492264</ele>
        <time>2017-05-14T10:31:32Z</time>
      </trkpt>
      <trkpt lat="49.41055" lon="1.15605">
        <ele>146</ele>
        <time>2017-05-14T10:31:44Z</time>
      </trkpt>
      <trkpt lat="49.41058" lon="1.15568">
        <ele>145.8</ele>
        <time>2017-05-14T10:31:56Z</time>
      </trkpt>
      <trkpt lat="49.41062" lon="1.15537">
        <ele>145.8</ele>
        <time>2017-05-14T10:32:08Z</time>
      </trkpt>
      <trkpt lat="49.41066" lon="1.15517">
        <ele>146</ele>
        <time>2017-05-14T10:32:20Z</time>
      </trkpt>
      <trkpt lat="49.41088" lon="1.15499">
        <ele>145</ele>
        <time>2017-05-14T10:32:32Z</time>
      </trkpt>
      <trkpt lat="49.4113" lon="1.15452">
        <ele>129.119659</ele>
        <time>2017-05-14T10:32:44Z</time>
      </trkpt>
      <trkpt lat="49.41159" lon="1.15384">
        <ele>146</ele>
        <time>2017-05-14T10:32:56Z</time>
      </trkpt>
      <trkpt lat="49.4118" lon="1.15342">
        <ele>145</ele>
        <time>2017-05-14T10:33:08Z</time>
      </trkpt>
      <trkpt lat="49.41194" lon="1.15362">
        <ele>127.111336</ele>
        <time>2017-05-14T10:33:20Z</time>
      </trkpt>
      <trkpt lat="49.41219" lon="1.15421">
        <ele>126.582855</ele>
        <time>2017-05-14T10:33:32Z</time>
      </trkpt>
      <trkpt lat="49.41243" lon="1.15476">
        <ele>126.594589</ele>
        <time>2017-05-14T10:33:44Z</time>
      </trkpt>
      <trkpt lat="49.41277" lon="1.15546">
        <ele>125.772514</ele>
        <time>2017-05-14T10:33:56Z</time>
      </trkpt>
      <trkpt lat="49.41307" lon="1.15611">
        <ele>124.645226</ele>
        <time>2017-05-14T10:34:08Z</time>
      </trkpt>
      <trkpt lat="49.41333" lon="1.15671">
        <ele>124.953766</ele>
        <time>2017-05-14T10:34:20Z</time>
      </trkpt>
      <trkpt lat="49.41355" lon="1.15736">
        <ele>125.342476</ele>
        <time>2017-05-14T10:34:32Z</time>
      </trkpt>
      <trkpt lat="49.41377" lon="1.15801">
        <ele>125.707191</ele>
        <time>2017-05-14T10:34:44Z</time>
      </trkpt>
      <trkpt lat="49.41398" lon="1.15867">
        <ele>126.089539</ele>
        <time>2017-05-14T10:34:56Z</time>
      </trkpt>
      <trkpt lat="49.41413" lon="1.15937">
        <ele>126.30545</ele>
        <time>2017-05-14T10:35:08Z</time>
      </trkpt>
      <trkpt lat="49.41425" lon="1.16007">
        <ele>125.7118</ele>
        <time>2017-05-14T10:35:20Z</time>
      </trkpt>
      <trkpt lat="49.41431" lon="1.16071">
        <ele>125.351517</ele>
        <time>2017-05-14T10:35:32Z</time>
      </trkpt>
      <trkpt lat="49.4144" lon="1.16136">
        <ele>125.247635</ele>
        <time>2017-05-14T10:35:44Z</time>
      </trkpt>
      <trkpt lat="49.41446" lon="1.16205">
        <ele>125.741707</ele>
        <time>2017-05-14T10:35:56Z</time>
      </trkpt>
      <trkpt lat="49.41456" lon="1.16273">
        <ele>126.22847</ele>
        <time>2017-05-14T10:36:08Z</time>
      </trkpt>
      <trkpt lat="49.41478" lon="1.16332">
        <ele>126.733299</ele>
        <time>2017-05-14T10:36:20Z</time>
      </trkpt>
      <trkpt lat="49.41518" lon="1.16361">
        <ele>127.737236</ele>
        <time>2017-05-14T10:36:32Z</time>
      </trkpt>
      <trkpt lat="49.41562" lon="1.16388">
        <ele>128.379639</ele>
        <time>2017-05-14T10:36:44Z</time>
      </trkpt>
      <trkpt lat="49.41607" lon="1.16423">
        <ele>127.906113</ele>
        <time>2017-05-14T10:36:58Z</time>
      </trkpt>
      <trkpt lat="49.41647" lon="1.16476">
        <ele>127.10849</ele>
        <time>2017-05-14T10:37:10Z</time>
      </trkpt>
      <trkpt lat="49.41691" lon="1.16493">
        <ele>126.027939</ele>
        <time>2017-05-14T10:37:22Z</time>
      </trkpt>
      <trkpt lat="49.41737" lon="1.16507">
        <ele>125.183029</ele>
        <time>2017-05-14T10:37:34Z</time>
      </trkpt>
      <trkpt lat="49.41785" lon="1.16536">
        <ele>124.563248</ele>
        <time>2017-05-14T10:37:46Z</time>
      </trkpt>
      <trkpt lat="49.41824" lon="1.16581">
        <ele>123.726639</ele>
        <time>2017-05-14T10:38:22Z</time>
      </trkpt>
      <trkpt lat="49.41835" lon="1.16601">
        <ele>144</ele>
        <time>2017-05-14T10:38:34Z</time>
      </trkpt>
      <trkpt lat="49.41825" lon="1.1664">
        <ele>122.762009</ele>
        <time>2017-05-14T10:38:58Z</time>
      </trkpt>
      <trkpt lat="49.41802" lon="1.16713">
        <ele>122.175919</ele>
        <time>2017-05-14T10:39:10Z</time>
      </trkpt>
      <trkpt lat="49.41779" lon="1.16783">
        <ele>122.32428</ele>
        <time>2017-05-14T10:39:22Z</time>
      </trkpt>
      <trkpt lat="49.41748" lon="1.16836">
        <ele>122.640625</ele>
        <time>2017-05-14T10:39:34Z</time>
      </trkpt>
      <trkpt lat="49.41721" lon="1.16896">
        <ele>123.900032</ele>
        <time>2017-05-14T10:39:46Z</time>
      </trkpt>
      <trkpt lat="49.41693" lon="1.16966">
        <ele>123.954514</ele>
        <time>2017-05-14T10:39:58Z</time>
      </trkpt>
      <trkpt lat="49.41655" lon="1.17037">
        <ele>122.754356</ele>
        <time>2017-05-14T10:40:10Z</time>
      </trkpt>
      <trkpt lat="49.416" lon="1.17072">
        <ele>120.77005</ele>
        <time>2017-05-14T10:40:22Z</time>
      </trkpt>
      <trkpt lat="49.41552" lon="1.17113">
        <ele>119.839569</ele>
        <time>2017-05-14T10:40:34Z</time>
      </trkpt>
      <trkpt lat="49.41503" lon="1.1715">
        <ele>119.802406</ele>
        <time>2017-05-14T10:40:46Z</time>
      </trkpt>
      <trkpt lat="49.41456" lon="1.17186">
        <ele>121.275177</ele>
        <time>2017-05-14T10:40:58Z</time>
      </trkpt>
      <trkpt lat="49.41409" lon="1.17222">
        <ele>122.78569</ele>
        <time>2017-05-14T10:41:10Z</time>
      </trkpt>
      <trkpt lat="49.41364" lon="1.17256">
        <ele>124.301872</ele>
        <time>2017-05-14T10:41:22Z</time>
      </trkpt>
      <trkpt lat="49.41322" lon="1.17292">
        <ele>145.2</ele>
        <time>2017-05-14T10:41:34Z</time>
      </trkpt>
      <trkpt lat="49.41297" lon="1.1731">
        <ele>146</ele>
        <time>2017-05-14T10:41:46Z</time>
      </trkpt>
      <trkpt lat="49.41278" lon="1.1734">
        <ele>146.2</ele>
        <time>2017-05-14T10:41:58Z</time>
      </trkpt>
      <trkpt lat="49.4133" lon="1.17355">
        <ele>126.76313</ele>
        <time>2017-05-14T10:42:10Z</time>
      </trkpt>
      <trkpt lat="49.41379" lon="1.17364">
        <ele>126.746666</ele>
        <time>2017-05-14T10:42:22Z</time>
      </trkpt>
      <trkpt lat="49.41437" lon="1.17369">
        <ele>124.628983</ele>
        <time>2017-05-14T10:42:34Z</time>
      </trkpt>
      <trkpt lat="49.41492" lon="1.17374">
        <ele>122.602089</ele>
        <time>2017-05-14T10:42:46Z</time>
      </trkpt>
      <trkpt lat="49.41504" lon="1.17377">
        <ele>137</ele>
        <time>2017-05-14T10:42:58Z</time>
      </trkpt>
      <trkpt lat="49.41505" lon="1.17412">
        <ele>121.119537</ele>
        <time>2017-05-14T10:43:10Z</time>
      </trkpt>
      <trkpt lat="49.41495" lon="1.17487">
        <ele>120.658424</ele>
        <time>2017-05-14T10:43:22Z</time>
      </trkpt>
      <trkpt lat="49.41486" lon="1.1756">
        <ele>121.032104</ele>
        <time>2017-05-14T10:43:34Z</time>
      </trkpt>
      <trkpt lat="49.41478" lon="1.17633">
        <ele>122.430405</ele>
        <time>2017-05-14T10:43:46Z</time>
      </trkpt>
      <trkpt lat="49.4147" lon="1.17709">
        <ele>123.319016</ele>
        <time>2017-05-14T10:43:58Z</time>
      </trkpt>
      <trkpt lat="49.41462" lon="1.17787">
        <ele>123.87323</ele>
        <time>2017-05-14T10:44:22Z</time>
      </trkpt>
      <trkpt lat="49.41456" lon="1.17867">
        <ele>124.084236</ele>
        <time>2017-05-14T10:44:34Z</time>
      </trkpt>
      <trkpt lat="49.41441" lon="1.17947">
        <ele>123.560493</ele>
        <time>2017-05-14T10:44:46Z</time>
      </trkpt>
      <trkpt lat="49.41412" lon="1.18015">
        <ele>140.4</ele>
        <time>2017-05-14T10:44:58Z</time>
      </trkpt>
      <trkpt lat="49.41396" lon="1.18048">
        <ele>140</ele>
        <time>2017-05-14T10:45:10Z</time>
      </trkpt>
      <trkpt lat="49.41374" lon="1.18064">
        <ele>120.43541</ele>
        <time>2017-05-14T10:45:22Z</time>
      </trkpt>
      <trkpt lat="49.41339" lon="1.18019">
        <ele>118.936821</ele>
        <time>2017-05-14T10:45:34Z</time>
      </trkpt>
      <trkpt lat="49.41307" lon="1.17978">
        <ele>120.632225</ele>
        <time>2017-05-14T10:45:46Z</time>
      </trkpt>
      <trkpt lat="49.41274" lon="1.17943">
        <ele>122.76165</ele>
        <time>2017-05-14T10:45:58Z</time>
      </trkpt>
      <trkpt lat="49.41243" lon="1.17907">
        <ele>124.204163</ele>
        <time>2017-05-14T10:46:10Z</time>
      </trkpt>
      <trkpt lat="49.4121" lon="1.17872">
        <ele>125.412804</ele>
        <time>2017-05-14T10:46:22Z</time>
      </trkpt>
      <trkpt lat="49.4118" lon="1.17838">
        <ele>126.589371</ele>
        <time>2017-05-14T10:46:34Z</time>
      </trkpt>
      <trkpt lat="49.41155" lon="1.17804">
        <ele>127.536255</ele>
        <time>2017-05-14T10:46:46Z</time>
      </trkpt>
      <trkpt lat="49.41131" lon="1.17767">
        <ele>128.309982</ele>
        <time>2017-05-14T10:46:58Z</time>
      </trkpt>
      <trkpt lat="49.41112" lon="1.17719">
        <ele>129.033981</ele>
        <time>2017-05-14T10:47:10Z</time>
      </trkpt>
      <trkpt lat="49.4109" lon="1.17669">
        <ele>129.616394</ele>
        <time>2017-05-14T10:47:22Z</time>
      </trkpt>
      <trkpt lat="49.41066" lon="1.17623">
        <ele>130.557861</ele>
        <time>2017-05-14T10:47:34Z</time>
      </trkpt>
      <trkpt lat="49.41038" lon="1.1758">
        <ele>131.48381</ele>
        <time>2017-05-14T10:48:10Z</time>
      </trkpt>
      <trkpt lat="49.4101" lon="1.17543">
        <ele>132.54306</ele>
        <time>2017-05-14T10:48:22Z</time>
      </trkpt>
      <trkpt lat="49.40987" lon="1.17516">
        <ele>133.790527</ele>
        <time>2017-05-14T10:48:34Z</time>
      </trkpt>
      <trkpt lat="49.40963" lon="1.17489">
        <ele>134.766388</ele>
        <time>2017-05-14T10:48:46Z</time>
      </trkpt>
      <trkpt lat="49.4094" lon="1.17465">
        <ele>135.580917</ele>
        <time>2017-05-14T10:56:20Z</time>
      </trkpt>
      <trkpt lat="49.40918" lon="1.17438">
        <ele>136.958527</ele>
        <time>2017-05-14T10:56:44Z</time>
      </trkpt>
      <trkpt lat="49.40897" lon="1.17449">
        <ele>138.970337</ele>
        <time>2017-05-14T10:56:56Z</time>
      </trkpt>
      <trkpt lat="49.40873" lon="1.17481">
        <ele>140.042404</ele>
        <time>2017-05-14T10:57:08Z</time>
      </trkpt>
      <trkpt lat="49.40843" lon="1.17519">
        <ele>140.443329</ele>
        <time>2017-05-14T10:57:20Z</time>
      </trkpt>
      <trkpt lat="49.40813" lon="1.1756">
        <ele>140.804276</ele>
        <time>2017-05-14T10:57:32Z</time>
      </trkpt>
      <trkpt lat="49.40781" lon="1.17604">
        <ele>141.027283</ele>
        <time>2017-05-14T10:57:44Z</time>
      </trkpt>
      <trkpt lat="49.40752" lon="1.17642">
        <ele>140.998062</ele>
        <time>2017-05-14T10:57:56Z</time>
      </trkpt>
      <trkpt lat="49.40715" lon="1.17623">
        <ele>141.589188</ele>
        <time>2017-05-14T10:59:08Z</time>
      </trkpt>
      <trkpt lat="49.40683" lon="1.1761">
        <ele>142.24707</ele>
        <time>2017-05-14T10:59:20Z</time>
      </trkpt>
      <trkpt lat="49.40668" lon="1.17673">
        <ele>157.9</ele>
        <time>2017-05-14T10:59:44Z</time>
      </trkpt>
      <trkpt lat="49.40654" lon="1.17745">
        <ele>158.1</ele>
        <time>2017-05-14T10:59:56Z</time>
      </trkpt>
      <trkpt lat="49.40634" lon="1.17813">
        <ele>143.350708</ele>
        <time>2017-05-14T11:00:08Z</time>
      </trkpt>
      <trkpt lat="49.40614" lon="1.1788">
        <ele>144.045654</ele>
        <time>2017-05-14T11:00:20Z</time>
      </trkpt>
      <trkpt lat="49.40593" lon="1.17947">
        <ele>144.575653</ele>
        <time>2017-05-14T11:00:32Z</time>
      </trkpt>
      <trkpt lat="49.40572" lon="1.18017">
        <ele>145.05278</ele>
        <time>2017-05-14T11:00:44Z</time>
      </trkpt>
      <trkpt lat="49.40547" lon="1.18087">
        <ele>145.297607</ele>
        <time>2017-05-14T11:01:03Z</time>
      </trkpt>
      <trkpt lat="49.40526" lon="1.18163">
        <ele>145.769073</ele>
        <time>2017-05-14T11:01:15Z</time>
      </trkpt>
      <trkpt lat="49.40512" lon="1.18242">
        <ele>158</ele>
        <time>2017-05-14T11:01:27Z</time>
      </trkpt>
      <trkpt lat="49.40497" lon="1.18316">
        <ele>145.308945</ele>
        <time>2017-05-14T11:01:39Z</time>
      </trkpt>
      <trkpt lat="49.40488" lon="1.18386">
        <ele>144.805359</ele>
        <time>2017-05-14T11:01:51Z</time>
      </trkpt>
      <trkpt lat="49.40493" lon="1.18448">
        <ele>145.077911</ele>
        <time>2017-05-14T11:02:03Z</time>
      </trkpt>
      <trkpt lat="49.4052" lon="1.18505">
        <ele>145.07576</ele>
        <time>2017-05-14T11:02:15Z</time>
      </trkpt>
      <trkpt lat="49.40548" lon="1.1857">
        <ele>145.274841</ele>
        <time>2017-05-14T11:02:35Z</time>
      </trkpt>
      <trkpt lat="49.40581" lon="1.18642">
        <ele>144.626755</ele>
        <time>2017-05-14T11:02:47Z</time>
      </trkpt>
      <trkpt lat="49.40617" lon="1.18715">
        <ele>143.740204</ele>
        <time>2017-05-14T11:02:59Z</time>
      </trkpt>
      <trkpt lat="49.40654" lon="1.18793">
        <ele>142.222778</ele>
        <time>2017-05-14T11:03:11Z</time>
      </trkpt>
      <trkpt lat="49.40696" lon="1.18883">
        <ele>139.844208</ele>
        <time>2017-05-14T11:03:23Z</time>
      </trkpt>
      <trkpt lat="49.40732" lon="1.18965">
        <ele>137.660767</ele>
        <time>2017-05-14T11:03:35Z</time>
      </trkpt>
      <trkpt lat="49.40768" lon="1.19061">
        <ele>136.136475</ele>
        <time>2017-05-14T11:03:47Z</time>
      </trkpt>
      <trkpt lat="49.40804" lon="1.19162">
        <ele>133.509781</ele>
        <time>2017-05-14T11:03:59Z</time>
      </trkpt>
      <trkpt lat="49.40844" lon="1.19266">
        <ele>130.62439</ele>
        <time>2017-05-14T11:04:11Z</time>
      </trkpt>
      <trkpt lat="49.40886" lon="1.19372">
        <ele>127.961235</ele>
        <time>2017-05-14T11:04:23Z</time>
      </trkpt>
      <trkpt lat="49.40927" lon="1.19455">
        <ele>124.960915</ele>
        <time>2017-05-14T11:04:47Z</time>
      </trkpt>
      <trkpt lat="49.40947" lon="1.195">
        <ele>122.05632</ele>
        <time>2017-05-14T11:04:59Z</time>
      </trkpt>
      <trkpt lat="49.40973" lon="1.19575">
        <ele>121.311951</ele>
        <time>2017-05-14T11:05:11Z</time>
      </trkpt>
      <trkpt lat="49.40991" lon="1.19651">
        <ele>120.14222</ele>
        <time>2017-05-14T11:05:23Z</time>
      </trkpt>
      <trkpt lat="49.41009" lon="1.1973">
        <ele>118.561539</ele>
        <time>2017-05-14T11:05:47Z</time>
      </trkpt>
      <trkpt lat="49.41012" lon="1.19807">
        <ele>117.371407</ele>
        <time>2017-05-14T11:05:59Z</time>
      </trkpt>
      <trkpt lat="49.41011" lon="1.19882">
        <ele>116.920563</ele>
        <time>2017-05-14T11:06:11Z</time>
      </trkpt>
      <trkpt lat="49.41005" lon="1.19956">
        <ele>117.443581</ele>
        <time>2017-05-14T11:06:23Z</time>
      </trkpt>
      <trkpt lat="49.40988" lon="1.20014">
        <ele>118.411263</ele>
        <time>2017-05-14T11:06:35Z</time>
      </trkpt>
      <trkpt lat="49.40969" lon="1.20066">
        <ele>119.500656</ele>
        <time>2017-05-14T11:06:47Z</time>
      </trkpt>
      <trkpt lat="49.4095" lon="1.20122">
        <ele>120.278702</ele>
        <time>2017-05-14T11:06:59Z</time>
      </trkpt>
      <trkpt lat="49.4094" lon="1.20142">
        <ele>133</ele>
        <time>2017-05-14T11:07:23Z</time>
      </trkpt>
      <trkpt lat="49.40923" lon="1.20159">
        <ele>120.181099</ele>
        <time>2017-05-14T11:07:35Z</time>
      </trkpt>
      <trkpt lat="49.40891" lon="1.20143">
        <ele>120.918854</ele>
        <time>2017-05-14T11:07:47Z</time>
      </trkpt>
      <trkpt lat="49.40872" lon="1.2011">
        <ele>121.526535</ele>
        <time>2017-05-14T11:07:59Z</time>
      </trkpt>
      <trkpt lat="49.40857" lon="1.20061">
        <ele>122.505005</ele>
        <time>2017-05-14T11:08:11Z</time>
      </trkpt>
      <trkpt lat="49.40839" lon="1.20008">
        <ele>123.225746</ele>
        <time>2017-05-14T11:08:23Z</time>
      </trkpt>
      <trkpt lat="49.40817" lon="1.19962">
        <ele>124.181816</ele>
        <time>2017-05-14T11:08:35Z</time>
      </trkpt>
      <trkpt lat="49.40789" lon="1.19922">
        <ele>125.335854</ele>
        <time>2017-05-14T11:08:47Z</time>
      </trkpt>
      <trkpt lat="49.4076" lon="1.19887">
        <ele>126.058777</ele>
        <time>2017-05-14T11:08:59Z</time>
      </trkpt>
      <trkpt lat="49.40729" lon="1.19854">
        <ele>126.984344</ele>
        <time>2017-05-14T11:09:11Z</time>
      </trkpt>
      <trkpt lat="49.40696" lon="1.19819">
        <ele>128.018677</ele>
        <time>2017-05-14T11:09:23Z</time>
      </trkpt>
      <trkpt lat="49.40661" lon="1.19784">
        <ele>128.790619</ele>
        <time>2017-05-14T11:09:37Z</time>
      </trkpt>
      <trkpt lat="49.40626" lon="1.19752">
        <ele>129.881546</ele>
        <time>2017-05-14T11:09:49Z</time>
      </trkpt>
      <trkpt lat="49.40584" lon="1.19721">
        <ele>131.106354</ele>
        <time>2017-05-14T11:10:01Z</time>
      </trkpt>
      <trkpt lat="49.40548" lon="1.19696">
        <ele>132.083145</ele>
        <time>2017-05-14T11:10:13Z</time>
      </trkpt>
      <trkpt lat="49.40513" lon="1.19676">
        <ele>132.940994</ele>
        <time>2017-05-14T11:10:25Z</time>
      </trkpt>
      <trkpt lat="49.40465" lon="1.1969">
        <ele>133.036011</ele>
        <time>2017-05-14T11:10:37Z</time>
      </trkpt>
      <trkpt lat="49.40405" lon="1.19727">
        <ele>131.944763</ele>
        <time>2017-05-14T11:10:49Z</time>
      </trkpt>
      <trkpt lat="49.40335" lon="1.19792">
        <ele>141.5</ele>
        <time>2017-05-14T11:11:01Z</time>
      </trkpt>
      <trkpt lat="49.40356" lon="1.19799">
        <ele>141</ele>
        <time>2017-05-14T11:11:13Z</time>
      </trkpt>
      <trkpt lat="49.40376" lon="1.19815">
        <ele>141</ele>
        <time>2017-05-14T11:11:25Z</time>
      </trkpt>
      <trkpt lat="49.40386" lon="1.19842">
        <ele>138.7</ele>
        <time>2017-05-14T11:12:25Z</time>
      </trkpt>
      <trkpt lat="49.40396" lon="1.19949">
        <ele>121.854362</ele>
        <time>2017-05-14T11:12:37Z</time>
      </trkpt>
      <trkpt lat="49.40403" lon="1.20073">
        <ele>116.623711</ele>
        <time>2017-05-14T11:12:49Z</time>
      </trkpt>
      <trkpt lat="49.40393" lon="1.20192">
        <ele>123</ele>
        <time>2017-05-14T11:13:01Z</time>
      </trkpt>
      <trkpt lat="49.40367" lon="1.20242">
        <ele>121</ele>
        <time>2017-05-14T11:13:13Z</time>
      </trkpt>
      <trkpt lat="49.40332" lon="1.20288">
        <ele>102.792305</ele>
        <time>2017-05-14T11:13:25Z</time>
      </trkpt>
      <trkpt lat="49.40297" lon="1.20344">
        <ele>99.505707</ele>
        <time>2017-05-14T11:13:37Z</time>
      </trkpt>
      <trkpt lat="49.40276" lon="1.20386">
        <ele>99.629898</ele>
        <time>2017-05-14T11:13:49Z</time>
      </trkpt>
      <trkpt lat="49.4026" lon="1.20425">
        <ele>100.430573</ele>
        <time>2017-05-14T11:14:01Z</time>
      </trkpt>
      <trkpt lat="49.40257" lon="1.20473">
        <ele>101.645645</ele>
        <time>2017-05-14T11:14:13Z</time>
      </trkpt>
      <trkpt lat="49.40247" lon="1.20513">
        <ele>102.967232</ele>
        <time>2017-05-14T11:14:25Z</time>
      </trkpt>
      <trkpt lat="49.40225" lon="1.20541">
        <ele>104.177544</ele>
        <time>2017-05-14T11:14:49Z</time>
      </trkpt>
      <trkpt lat="49.40203" lon="1.20567">
        <ele>105.020912</ele>
        <time>2017-05-14T11:15:01Z</time>
      </trkpt>
      <trkpt lat="49.40188" lon="1.20601">
        <ele>105.926094</ele>
        <time>2017-05-14T11:15:13Z</time>
      </trkpt>
      <trkpt lat="49.40178" lon="1.20631">
        <ele>106.790306</ele>
        <time>2017-05-14T11:15:25Z</time>
      </trkpt>
      <trkpt lat="49.40166" lon="1.20661">
        <ele>108.775017</ele>
        <time>2017-05-14T11:15:37Z</time>
      </trkpt>
      <trkpt lat="49.40154" lon="1.20699">
        <ele>110.018356</ele>
        <time>2017-05-14T11:15:49Z</time>
      </trkpt>
      <trkpt lat="49.40143" lon="1.20735">
        <ele>111.412682</ele>
        <time>2017-05-14T11:16:13Z</time>
      </trkpt>
      <trkpt lat="49.40126" lon="1.20767">
        <ele>112.3834</ele>
        <time>2017-05-14T11:16:25Z</time>
      </trkpt>
      <trkpt lat="49.40108" lon="1.20798">
        <ele>112.770798</ele>
        <time>2017-05-14T11:16:37Z</time>
      </trkpt>
      <trkpt lat="49.4009" lon="1.20828">
        <ele>113.383011</ele>
        <time>2017-05-14T11:16:49Z</time>
      </trkpt>
      <trkpt lat="49.40074" lon="1.20856">
        <ele>114.332817</ele>
        <time>2017-05-14T11:17:01Z</time>
      </trkpt>
      <trkpt lat="49.40059" lon="1.20882">
        <ele>115.381134</ele>
        <time>2017-05-14T11:17:13Z</time>
      </trkpt>
      <trkpt lat="49.40044" lon="1.20903">
        <ele>116.598854</ele>
        <time>2017-05-14T11:17:25Z</time>
      </trkpt>
      <trkpt lat="49.40027" lon="1.20929">
        <ele>117.382309</ele>
        <time>2017-05-14T11:17:37Z</time>
      </trkpt>
      <trkpt lat="49.40012" lon="1.20953">
        <ele>117.970329</ele>
        <time>2017-05-14T11:17:49Z</time>
      </trkpt>
      <trkpt lat="49.39998" lon="1.20977">
        <ele>118.569733</ele>
        <time>2017-05-14T11:18:01Z</time>
      </trkpt>
      <trkpt lat="49.39982" lon="1.20996">
        <ele>119.128555</ele>
        <time>2017-05-14T11:18:13Z</time>
      </trkpt>
      <trkpt lat="49.39962" lon="1.21016">
        <ele>119.946129</ele>
        <time>2017-05-14T11:18:25Z</time>
      </trkpt>
      <trkpt lat="49.39938" lon="1.21038">
        <ele>120.417847</ele>
        <time>2017-05-14T11:18:37Z</time>
      </trkpt>
      <trkpt lat="49.39913" lon="1.21063">
        <ele>121.123077</ele>
        <time>2017-05-14T11:18:49Z</time>
      </trkpt>
      <trkpt lat="49.39892" lon="1.21075">
        <ele>141</ele>
        <time>2017-05-14T11:19:01Z</time>
      </trkpt>
      <trkpt lat="49.39867" lon="1.21067">
        <ele>122.431183</ele>
        <time>2017-05-14T11:19:13Z</time>
      </trkpt>
      <trkpt lat="49.39844" lon="1.21056">
        <ele>123.518311</ele>
        <time>2017-05-14T11:19:25Z</time>
      </trkpt>
      <trkpt lat="49.39822" lon="1.21043">
        <ele>124.435135</ele>
        <time>2017-05-14T11:19:37Z</time>
      </trkpt>
      <trkpt lat="49.39804" lon="1.21029">
        <ele>125.436943</ele>
        <time>2017-05-14T11:19:49Z</time>
      </trkpt>
      <trkpt lat="49.39788" lon="1.2101">
        <ele>126.689522</ele>
        <time>2017-05-14T11:20:01Z</time>
      </trkpt>
      <trkpt lat="49.39771" lon="1.20991">
        <ele>127.765648</ele>
        <time>2017-05-14T11:20:13Z</time>
      </trkpt>
      <trkpt lat="49.39755" lon="1.20975">
        <ele>128.866791</ele>
        <time>2017-05-14T11:20:25Z</time>
      </trkpt>
      <trkpt lat="49.39743" lon="1.20956">
        <ele>129.950439</ele>
        <time>2017-05-14T11:20:37Z</time>
      </trkpt>
      <trkpt lat="49.39746" lon="1.20921">
        <ele>130.334412</ele>
        <time>2017-05-14T11:20:49Z</time>
      </trkpt>
      <trkpt lat="49.39726" lon="1.20902">
        <ele>130.453781</ele>
        <time>2017-05-14T11:21:01Z</time>
      </trkpt>
      <trkpt lat="49.39716" lon="1.20875">
        <ele>130.689484</ele>
        <time>2017-05-14T11:21:14Z</time>
      </trkpt>
      <trkpt lat="49.39722" lon="1.20825">
        <ele>130.408325</ele>
        <time>2017-05-14T11:21:38Z</time>
      </trkpt>
      <trkpt lat="49.39728" lon="1.20773">
        <ele>129.704758</ele>
        <time>2017-05-14T11:26:41Z</time>
      </trkpt>
      <trkpt lat="49.39735" lon="1.20715">
        <ele>128.935654</ele>
      </trkpt>
      <trkpt lat="49.39743" lon="1.20656">
        <ele>128.931641</ele>
      </trkpt>
      <trkpt lat="49.39747" lon="1.20594">
        <ele>129.260132</ele>
      </trkpt>
      <trkpt lat="49.39749" lon="1.20534">
        <ele>129.670944</ele>
      </trkpt>
      <trkpt lat="49.39756" lon="1.20463">
        <ele>148</ele>
      </trkpt>
      <trkpt lat="49.39797" lon="1.20472">
        <ele>147.3</ele>
      </trkpt>
      <trkpt lat="49.39812" lon="1.2043">
        <ele>129.478424</ele>
      </trkpt>
      <trkpt lat="49.39824" lon="1.20367">
        <ele>129.461334</ele>
      </trkpt>
      <trkpt lat="49.39832" lon="1.203">
        <ele>129.316574</ele>
      </trkpt>
      <trkpt lat="49.39831" lon="1.20224">
        <ele>128.609497</ele>
      </trkpt>
      <trkpt lat="49.39832" lon="1.20108">
        <ele>126.51989</ele>
      </trkpt>
      <trkpt lat="49.39848" lon="1.20004">
        <ele>147</ele>
      </trkpt>
      <trkpt lat="49.39868" lon="1.1991">
        <ele>146</ele>
      </trkpt>
      <trkpt lat="49.399" lon="1.19793">
        <ele>145</ele>
      </trkpt>
      <trkpt lat="49.39928" lon="1.1972">
        <ele>144</ele>
      </trkpt>
      <trkpt lat="49.39954" lon="1.19656">
        <ele>145</ele>
      </trkpt>
      <trkpt lat="49.39961" lon="1.1962">
        <ele>145</ele>
      </trkpt>
      <trkpt lat="49.39948" lon="1.19615">
        <ele>145</ele>
      </trkpt>
      <trkpt lat="49.39933" lon="1.19609">
        <ele>145</ele>
      </trkpt>
      <trkpt lat="49.39968" lon="1.1953">
        <ele>146</ele>
      </trkpt>
      <trkpt lat="49.40048" lon="1.19408">
        <ele>149</ele>
      </trkpt>
      <trkpt lat="49.40105" lon="1.19306">
        <ele>153</ele>
      </trkpt>
      <trkpt lat="49.40163" lon="1.192">
        <ele>154</ele>
      </trkpt>
      <trkpt lat="49.40206" lon="1.19104">
        <ele>156</ele>
      </trkpt>
      <trkpt lat="49.40271" lon="1.18943">
        <ele>156</ele>
      </trkpt>
      <trkpt lat="49.40224" lon="1.18917">
        <ele>151.70932</ele>
      </trkpt>
      <trkpt lat="49.40184" lon="1.18903">
        <ele>155.119308</ele>
      </trkpt>
      <trkpt lat="49.40142" lon="1.1889">
        <ele>156.574249</ele>
      </trkpt>
      <trkpt lat="49.40099" lon="1.18863">
        <ele>156.527328</ele>
      </trkpt>
      <trkpt lat="49.40048" lon="1.18823">
        <ele>155.934265</ele>
      </trkpt>
      <trkpt lat="49.40011" lon="1.18792">
        <ele>154.757416</ele>
      </trkpt>
      <trkpt lat="49.40038" lon="1.18735">
        <ele>154.2</ele>
      </trkpt>
      <trkpt lat="49.4007" lon="1.18686">
        <ele>154.2</ele>
      </trkpt>
      <trkpt lat="49.40081" lon="1.18689">
        <ele>154.1</ele>
      </trkpt>
      <trkpt lat="49.40096" lon="1.18675">
        <ele>154</ele>
      </trkpt>
      <trkpt lat="49.40089" lon="1.1865">
        <ele>155</ele>
      </trkpt>
      <trkpt lat="49.40094" lon="1.18625">
        <ele>155</ele>
      </trkpt>
      <trkpt lat="49.4014" lon="1.1854">
        <ele>155.7</ele>
      </trkpt>
      <trkpt lat="49.40087" lon="1.1854">
        <ele>156.292847</ele>
      </trkpt>
      <trkpt lat="49.40048" lon="1.18537">
        <ele>156.404968</ele>
      </trkpt>
      <trkpt lat="49.40028" lon="1.1852">
        <ele>155.4</ele>
      </trkpt>
      <trkpt lat="49.40025" lon="1.18476">
        <ele>157.102493</ele>
      </trkpt>
      <trkpt lat="49.40025" lon="1.18422">
        <ele>157.243484</ele>
      </trkpt>
      <trkpt lat="49.40023" lon="1.18361">
        <ele>157.120667</ele>
      </trkpt>
      <trkpt lat="49.40018" lon="1.18299">
        <ele>156.576248</ele>
      </trkpt>
      <trkpt lat="49.40014" lon="1.18227">
        <ele>155.586823</ele>
      </trkpt>
      <trkpt lat="49.40009" lon="1.18164">
        <ele>155.087967</ele>
      </trkpt>
      <trkpt lat="49.40008" lon="1.18094">
        <ele>154.431915</ele>
      </trkpt>
      <trkpt lat="49.40008" lon="1.18019">
        <ele>153.932907</ele>
      </trkpt>
      <trkpt lat="49.39991" lon="1.18003">
        <ele>153.553665</ele>
      </trkpt>
      <trkpt lat="49.39969" lon="1.17985">
        <ele>153.334457</ele>
      </trkpt>
      <trkpt lat="49.39983" lon="1.17957">
        <ele>151</ele>
      </trkpt>
      <trkpt lat="49.39965" lon="1.17942">
        <ele>152.477417</ele>
      </trkpt>
      <trkpt lat="49.39931" lon="1.17906">
        <ele>151.883377</ele>
      </trkpt>
      <trkpt lat="49.39895" lon="1.17867">
        <ele>151.477432</ele>
      </trkpt>
      <trkpt lat="49.39859" lon="1.17828">
        <ele>150.817917</ele>
      </trkpt>
      <trkpt lat="49.39826" lon="1.17792">
        <ele>150.295563</ele>
      </trkpt>
      <trkpt lat="49.39802" lon="1.17766">
        <ele>150.0177</ele>
      </trkpt>
      <trkpt lat="49.39775" lon="1.1774">
        <ele>150.052719</ele>
      </trkpt>
      <trkpt lat="49.39742" lon="1.17715">
        <ele>150.862396</ele>
      </trkpt>
      <trkpt lat="49.39709" lon="1.17689">
        <ele>151.88588</ele>
      </trkpt>
      <trkpt lat="49.39675" lon="1.17659">
        <ele>152.060562</ele>
      </trkpt>
      <trkpt lat="49.39636" lon="1.17626">
        <ele>151.508331</ele>
      </trkpt>
      <trkpt lat="49.39608" lon="1.17607">
        <ele>147</ele>
      </trkpt>
      <trkpt lat="49.39584" lon="1.17617">
        <ele>151.069672</ele>
      </trkpt>
      <trkpt lat="49.39533" lon="1.17665">
        <ele>149.84549</ele>
      </trkpt>
      <trkpt lat="49.39505" lon="1.177">
        <ele>144</ele>
      </trkpt>
      <trkpt lat="49.39481" lon="1.17676">
        <ele>143.4</ele>
      </trkpt>
      <trkpt lat="49.39455" lon="1.17599">
        <ele>144.972687</ele>
      </trkpt>
      <trkpt lat="49.39428" lon="1.17518">
        <ele>144.145721</ele>
      </trkpt>
      <trkpt lat="49.39406" lon="1.17434">
        <ele>142.905426</ele>
      </trkpt>
      <trkpt lat="49.39415" lon="1.17328">
        <ele>140.138672</ele>
      </trkpt>
      <trkpt lat="49.39433" lon="1.17293">
        <ele>139</ele>
      </trkpt>
      <trkpt lat="49.39472" lon="1.17271">
        <ele>138.5</ele>
      </trkpt>
      <trkpt lat="49.39499" lon="1.1729">
        <ele>134.416748</ele>
      </trkpt>
      <trkpt lat="49.39537" lon="1.17297">
        <ele>134.912079</ele>
      </trkpt>
      <trkpt lat="49.39576" lon="1.17281">
        <ele>136.267273</ele>
      </trkpt>
      <trkpt lat="49.39616" lon="1.17261">
        <ele>138.017929</ele>
      </trkpt>
      <trkpt lat="49.39655" lon="1.17243">
        <ele>140.013565</ele>
      </trkpt>
      <trkpt lat="49.3969" lon="1.17229">
        <ele>141.688248</ele>
      </trkpt>
      <trkpt lat="49.39723" lon="1.17236">
        <ele>143.081909</ele>
      </trkpt>
      <trkpt lat="49.39735" lon="1.17241">
        <ele>143</ele>
      </trkpt>
      <trkpt lat="49.3975" lon="1.17223">
        <ele>142.9</ele>
      </trkpt>
      <trkpt lat="49.39752" lon="1.1719">
        <ele>145.048691</ele>
      </trkpt>
      <trkpt lat="49.39763" lon="1.17137">
        <ele>145.420334</ele>
      </trkpt>
      <trkpt lat="49.39777" lon="1.17088">
        <ele>145.923737</ele>
      </trkpt>
      <trkpt lat="49.39789" lon="1.17043">
        <ele>146.829895</ele>
      </trkpt>
      <trkpt lat="49.39798" lon="1.16996">
        <ele>147.464142</ele>
      </trkpt>
      <trkpt lat="49.39805" lon="1.16948">
        <ele>148.017746</ele>
      </trkpt>
      <trkpt lat="49.39808" lon="1.16899">
        <ele>148.582245</ele>
      </trkpt>
      <trkpt lat="49.39809" lon="1.16847">
        <ele>149.51033</ele>
      </trkpt>
      <trkpt lat="49.39807" lon="1.16797">
        <ele>150.204254</ele>
      </trkpt>
      <trkpt lat="49.39809" lon="1.16753">
        <ele>150.396912</ele>
      </trkpt>
      <trkpt lat="49.398" lon="1.16705">
        <ele>150.622025</ele>
      </trkpt>
      <trkpt lat="49.39796" lon="1.16646">
        <ele>151.018799</ele>
      </trkpt>
      <trkpt lat="49.39791" lon="1.16594">
        <ele>151.182495</ele>
      </trkpt>
      <trkpt lat="49.39782" lon="1.16538">
        <ele>151.727371</ele>
      </trkpt>
      <trkpt lat="49.3977" lon="1.16493">
        <ele>152.225357</ele>
      </trkpt>
      <trkpt lat="49.39755" lon="1.16449">
        <ele>153.043976</ele>
      </trkpt>
      <trkpt lat="49.3974" lon="1.16413">
        <ele>154.262054</ele>
      </trkpt>
      <trkpt lat="49.39724" lon="1.16379">
        <ele>155.716309</ele>
      </trkpt>
      <trkpt lat="49.39706" lon="1.16345">
        <ele>157.421783</ele>
      </trkpt>
      <trkpt lat="49.39688" lon="1.16307">
        <ele>159.026077</ele>
      </trkpt>
      <trkpt lat="49.3967" lon="1.16269">
        <ele>160.167984</ele>
      </trkpt>
      <trkpt lat="49.39649" lon="1.16242">
        <ele>155.5</ele>
      </trkpt>
      <trkpt lat="49.39636" lon="1.1621">
        <ele>155.3</ele>
      </trkpt>
      <trkpt lat="49.39619" lon="1.16174">
        <ele>155.3</ele>
      </trkpt>
      <trkpt lat="49.39611" lon="1.16146">
        <ele>156</ele>
      </trkpt>
      <trkpt lat="49.396" lon="1.16118">
        <ele>155.7</ele>
      </trkpt>
      <trkpt lat="49.39588" lon="1.16073">
        <ele>162.748962</ele>
      </trkpt>
      <trkpt lat="49.39566" lon="1.16018">
        <ele>162.64035</ele>
      </trkpt>
      <trkpt lat="49.39547" lon="1.15964">
        <ele>162.572372</ele>
      </trkpt>
      <trkpt lat="49.39529" lon="1.15913">
        <ele>162.962784</ele>
      </trkpt>
      <trkpt lat="49.39514" lon="1.15858">
        <ele>163.660553</ele>
      </trkpt>
      <trkpt lat="49.39504" lon="1.15798">
        <ele>164.135223</ele>
      </trkpt>
      <trkpt lat="49.39495" lon="1.15734">
        <ele>164.505783</ele>
      </trkpt>
      <trkpt lat="49.39486" lon="1.15672">
        <ele>164.898926</ele>
      </trkpt>
      <trkpt lat="49.39476" lon="1.15601">
        <ele>164.935516</ele>
      </trkpt>
      <trkpt lat="49.39463" lon="1.1553">
        <ele>164.55925</ele>
      </trkpt>
      <trkpt lat="49.39451" lon="1.15475">
        <ele>164.187088</ele>
      </trkpt>
      <trkpt lat="49.39443" lon="1.15452">
        <ele>155</ele>
      </trkpt>
      <trkpt lat="49.39422" lon="1.15467">
        <ele>155.2</ele>
      </trkpt>
      <trkpt lat="49.39385" lon="1.15508">
        <ele>163.903778</ele>
      </trkpt>
      <trkpt lat="49.39345" lon="1.15551">
        <ele>163.196915</ele>
      </trkpt>
      <trkpt lat="49.39305" lon="1.15595">
        <ele>162.355011</ele>
      </trkpt>
      <trkpt lat="49.39265" lon="1.15646">
        <ele>160.840683</ele>
      </trkpt>
      <trkpt lat="49.39219" lon="1.15703">
        <ele>159.178421</ele>
      </trkpt>
      <trkpt lat="49.39171" lon="1.15747">
        <ele>156.208374</ele>
      </trkpt>
      <trkpt lat="49.39148" lon="1.15719">
        <ele>146</ele>
      </trkpt>
      <trkpt lat="49.3914" lon="1.15688">
        <ele>146</ele>
      </trkpt>
      <trkpt lat="49.3913" lon="1.15658">
        <ele>154.563751</ele>
      </trkpt>
      <trkpt lat="49.39114" lon="1.1559">
        <ele>154.691711</ele>
      </trkpt>
      <trkpt lat="49.39098" lon="1.15522">
        <ele>154.844254</ele>
      </trkpt>
      <trkpt lat="49.39084" lon="1.15453">
        <ele>155.12149</ele>
      </trkpt>
      <trkpt lat="49.39068" lon="1.15384">
        <ele>155.175293</ele>
      </trkpt>
      <trkpt lat="49.39056" lon="1.15308">
        <ele>154.996735</ele>
      </trkpt>
      <trkpt lat="49.39045" lon="1.15217">
        <ele>152.815781</ele>
      </trkpt>
      <trkpt lat="49.39031" lon="1.15141">
        <ele>151.229843</ele>
      </trkpt>
      <trkpt lat="49.39018" lon="1.15075">
        <ele>152.068359</ele>
      </trkpt>
      <trkpt lat="49.39007" lon="1.15011">
        <ele>153.121078</ele>
      </trkpt>
      <trkpt lat="49.38999" lon="1.14949">
        <ele>153.817963</ele>
      </trkpt>
      <trkpt lat="49.38993" lon="1.14888">
        <ele>154.789185</ele>
      </trkpt>
      <trkpt lat="49.38986" lon="1.14825">
        <ele>155.204956</ele>
      </trkpt>
      <trkpt lat="49.38979" lon="1.14761">
        <ele>154.958786</ele>
      </trkpt>
      <trkpt lat="49.38975" lon="1.14697">
        <ele>155.045654</ele>
      </trkpt>
      <trkpt lat="49.38974" lon="1.14629">
        <ele>155.178406</ele>
      </trkpt>
      <trkpt lat="49.38978" lon="1.14562">
        <ele>154.88092</ele>
      </trkpt>
      <trkpt lat="49.38981" lon="1.1453">
        <ele>146</ele>
      </trkpt>
      <trkpt lat="49.38993" lon="1.14508">
        <ele>154.570831</ele>
      </trkpt>
      <trkpt lat="49.39024" lon="1.14478">
        <ele>154.741577</ele>
      </trkpt>
      <trkpt lat="49.3901" lon="1.14448">
        <ele>154.562256</ele>
      </trkpt>
      <trkpt lat="49.38977" lon="1.14404">
        <ele>154.348618</ele>
      </trkpt>
      <trkpt lat="49.3895" lon="1.14342">
        <ele>154.406799</ele>
      </trkpt>
      <trkpt lat="49.38923" lon="1.1429">
        <ele>154.067657</ele>
      </trkpt>
      <trkpt lat="49.38895" lon="1.14241">
        <ele>153.701935</ele>
      </trkpt>
      <trkpt lat="49.38866" lon="1.14192">
        <ele>153.237808</ele>
      </trkpt>
      <trkpt lat="49.38838" lon="1.14163">
        <ele>152.516174</ele>
      </trkpt>
      <trkpt lat="49.3882" lon="1.14129">
        <ele>151.738678</ele>
      </trkpt>
      <trkpt lat="49.38818" lon="1.14102">
        <ele>151.33963</ele>
      </trkpt>
      <trkpt lat="49.38843" lon="1.14073">
        <ele>150.870697</ele>
      </trkpt>
      <trkpt lat="49.38857" lon="1.14124">
        <ele>146.857315</ele>
      </trkpt>
    </trkseg>
  </trk>
</gpx>